<?xml version="1.0" encoding="UTF-8" standalone="no" ?>
<gpx xmlns="http://www.topografix.com/GPX/1/1" xmlns:xsi="http://www.w3.org/2001/XMLSchema-instance" xsi:schemaLocation="http://www.topografix.com/GPX/1/1 http://www.topografix.com/GPX/1/1/gpx.xsd" version="1.1" creator="VisuGPX - https://www.visugpx.com">
  <metadata>
    <name>Mazeres - Cier de rivière / Franquevielle</name>
  </metadata>
  <trk>
    <name><![CDATA[Mazeres - Cier de rivière / Franquevielle]]></name>
    <trkseg>
      <trkpt lat="43.06991" lon="0.54505">
        <ele>429.467121</ele>
        <time>2022-07-24T18:52:22.730Z</time>
      </trkpt>
      <trkpt lat="43.06998" lon="0.54503">
        <ele>429.467121</ele>
        <time>2022-07-24T18:52:33.749Z</time>
      </trkpt>
      <trkpt lat="43.06997" lon="0.54481">
        <ele>429.467121</ele>
        <time>2022-07-24T18:52:59.375Z</time>
      </trkpt>
      <trkpt lat="43.07016" lon="0.54459">
        <ele>429.467121</ele>
        <time>2022-07-24T18:53:37.949Z</time>
      </trkpt>
      <trkpt lat="43.07031" lon="0.54451">
        <ele>429.467121</ele>
        <time>2022-07-24T18:53:42.678Z</time>
      </trkpt>
      <trkpt lat="43.07036" lon="0.54423">
        <ele>429.467121</ele>
        <time>2022-07-24T18:53:48.784Z</time>
      </trkpt>
      <trkpt lat="43.07078" lon="0.54421">
        <ele>429.300609</ele>
        <time>2022-07-24T18:54:00.781Z</time>
      </trkpt>
      <trkpt lat="43.071" lon="0.54418">
        <ele>429.19929</ele>
        <time>2022-07-24T18:54:06.938Z</time>
      </trkpt>
      <trkpt lat="43.07104" lon="0.54418">
        <ele>429.181286</ele>
        <time>2022-07-24T18:54:08.127Z</time>
      </trkpt>
      <trkpt lat="43.07108" lon="0.54417">
        <ele>429.166462</ele>
        <time>2022-07-24T18:54:09.082Z</time>
      </trkpt>
      <trkpt lat="43.07117" lon="0.54455">
        <ele>429.037912</ele>
        <time>2022-07-24T18:54:14.587Z</time>
      </trkpt>
      <trkpt lat="43.07132" lon="0.545">
        <ele>428.877495</ele>
        <time>2022-07-24T18:54:20.956Z</time>
      </trkpt>
      <trkpt lat="43.07161" lon="0.54556">
        <ele>428.65666</ele>
        <time>2022-07-24T18:54:29.822Z</time>
      </trkpt>
      <trkpt lat="43.07195" lon="0.54675">
        <ele>428.422938</ele>
        <time>2022-07-24T18:54:45.632Z</time>
      </trkpt>
      <trkpt lat="43.07058" lon="0.54745">
        <ele>430.62306</ele>
        <time>2022-07-24T18:55:31.078Z</time>
      </trkpt>
      <trkpt lat="43.06993" lon="0.54818">
        <ele>433.891941</ele>
        <time>2022-07-24T18:56:20.230Z</time>
      </trkpt>
      <trkpt lat="43.06988" lon="0.54821">
        <ele>434.105869</ele>
        <time>2022-07-24T18:56:23.387Z</time>
      </trkpt>
      <trkpt lat="43.06982" lon="0.54827">
        <ele>434.381271</ele>
        <time>2022-07-24T18:56:27.361Z</time>
      </trkpt>
      <trkpt lat="43.06961" lon="0.54851">
        <ele>435.590276</ele>
        <time>2022-07-24T18:56:42.561Z</time>
      </trkpt>
      <trkpt lat="43.06926" lon="0.54888">
        <ele>438.238641</ele>
        <time>2022-07-24T18:57:07.904Z</time>
      </trkpt>
      <trkpt lat="43.0692" lon="0.54893">
        <ele>438.64379</ele>
        <time>2022-07-24T18:57:11.814Z</time>
      </trkpt>
      <trkpt lat="43.06918" lon="0.54896">
        <ele>438.843939</ele>
        <time>2022-07-24T18:57:13.725Z</time>
      </trkpt>
      <trkpt lat="43.06899" lon="0.54887">
        <ele>440.019175</ele>
        <time>2022-07-24T18:57:26.570Z</time>
      </trkpt>
      <trkpt lat="43.0688" lon="0.54858">
        <ele>441.744453</ele>
        <time>2022-07-24T18:57:45.211Z</time>
      </trkpt>
      <trkpt lat="43.06797" lon="0.54702">
        <ele>449.102899</ele>
        <time>2022-07-24T18:59:07.758Z</time>
      </trkpt>
      <trkpt lat="43.06774" lon="0.547">
        <ele>450.105936</ele>
        <time>2022-07-24T18:59:19.521Z</time>
      </trkpt>
      <trkpt lat="43.06726" lon="0.54719">
        <ele>452.306318</ele>
        <time>2022-07-24T18:59:44.733Z</time>
      </trkpt>
      <trkpt lat="43.06702" lon="0.54722">
        <ele>453.413946</ele>
        <time>2022-07-24T18:59:57.002Z</time>
      </trkpt>
      <trkpt lat="43.06671" lon="0.54696">
        <ele>454.4472</ele>
        <time>2022-07-24T19:00:14.107Z</time>
      </trkpt>
      <trkpt lat="43.06639" lon="0.54637">
        <ele>455.602723</ele>
        <time>2022-07-24T19:00:38.840Z</time>
      </trkpt>
      <trkpt lat="43.06474" lon="0.5447">
        <ele>458.722232</ele>
        <time>2022-07-24T19:01:50.658Z</time>
      </trkpt>
      <trkpt lat="43.0645" lon="0.54448">
        <ele>458.983103</ele>
        <time>2022-07-24T19:01:59.299Z</time>
      </trkpt>
      <trkpt lat="43.06419" lon="0.5443">
        <ele>459.284286</ele>
        <time>2022-07-24T19:02:09.701Z</time>
      </trkpt>
      <trkpt lat="43.064" lon="0.54406">
        <ele>459.467816</ele>
        <time>2022-07-24T19:02:18.264Z</time>
      </trkpt>
      <trkpt lat="43.06341" lon="0.5434">
        <ele>459.845039</ele>
        <time>2022-07-24T19:02:42.598Z</time>
      </trkpt>
      <trkpt lat="43.06308" lon="0.5432">
        <ele>460.028133</ele>
        <time>2022-07-24T19:02:55.051Z</time>
      </trkpt>
      <trkpt lat="43.06244" lon="0.54303">
        <ele>460.327784</ele>
        <time>2022-07-24T19:03:13.215Z</time>
      </trkpt>
      <trkpt lat="43.06214" lon="0.54314">
        <ele>460.406714</ele>
        <time>2022-07-24T19:03:21.675Z</time>
      </trkpt>
      <trkpt lat="43.06171" lon="0.54356">
        <ele>460.54255</ele>
        <time>2022-07-24T19:03:37.946Z</time>
      </trkpt>
      <trkpt lat="43.0612" lon="0.5436">
        <ele>460.67221</ele>
        <time>2022-07-24T19:03:52.482Z</time>
      </trkpt>
      <trkpt lat="43.061" lon="0.54374">
        <ele>460.728799</ele>
        <time>2022-07-24T19:03:58.416Z</time>
      </trkpt>
      <trkpt lat="43.06025" lon="0.54403">
        <ele>460.678725</ele>
        <time>2022-07-24T19:04:16.517Z</time>
      </trkpt>
      <trkpt lat="43.05883" lon="0.54486">
        <ele>459.741896</ele>
        <time>2022-07-24T19:04:45.785Z</time>
      </trkpt>
      <trkpt lat="43.05864" lon="0.54516">
        <ele>459.158459</ele>
        <time>2022-07-24T19:04:50.274Z</time>
      </trkpt>
      <trkpt lat="43.05849" lon="0.54551">
        <ele>458.565639</ele>
        <time>2022-07-24T19:04:54.738Z</time>
      </trkpt>
      <trkpt lat="43.05833" lon="0.54627">
        <ele>457.415151</ele>
        <time>2022-07-24T19:05:03.058Z</time>
      </trkpt>
      <trkpt lat="43.05832" lon="0.54707">
        <ele>456.446797</ele>
        <time>2022-07-24T19:05:11.620Z</time>
      </trkpt>
      <trkpt lat="43.0582" lon="0.54757">
        <ele>455.890889</ele>
        <time>2022-07-24T19:05:17.313Z</time>
      </trkpt>
      <trkpt lat="43.05799" lon="0.54819">
        <ele>455.183411</ele>
        <time>2022-07-24T19:05:25.035Z</time>
      </trkpt>
      <trkpt lat="43.05769" lon="0.54855">
        <ele>454.60877</ele>
        <time>2022-07-24T19:05:32.506Z</time>
      </trkpt>
      <trkpt lat="43.05752" lon="0.54863">
        <ele>454.407728</ele>
        <time>2022-07-24T19:05:35.882Z</time>
      </trkpt>
      <trkpt lat="43.05737" lon="0.54863">
        <ele>454.850693</ele>
        <time>2022-07-24T19:05:40.157Z</time>
      </trkpt>
      <trkpt lat="43.05684" lon="0.54826">
        <ele>456.61079</ele>
        <time>2022-07-24T19:05:58.988Z</time>
      </trkpt>
      <trkpt lat="43.05616" lon="0.54796">
        <ele>458.736066</ele>
        <time>2022-07-24T19:06:31.801Z</time>
      </trkpt>
      <trkpt lat="43.05583" lon="0.54792">
        <ele>459.719129</ele>
        <time>2022-07-24T19:06:48.106Z</time>
      </trkpt>
      <trkpt lat="43.0557" lon="0.54799">
        <ele>459.973473</ele>
        <time>2022-07-24T19:06:56.326Z</time>
      </trkpt>
      <trkpt lat="43.05527" lon="0.54842">
        <ele>460.902494</ele>
        <time>2022-07-24T19:07:12.424Z</time>
      </trkpt>
      <trkpt lat="43.05509" lon="0.5485">
        <ele>461.229379</ele>
        <time>2022-07-24T19:07:20.575Z</time>
      </trkpt>
      <trkpt lat="43.05483" lon="0.54851">
        <ele>461.684413</ele>
        <time>2022-07-24T19:07:27.568Z</time>
      </trkpt>
      <trkpt lat="43.05443" lon="0.54835">
        <ele>462.409911</ele>
        <time>2022-07-24T19:07:39.641Z</time>
      </trkpt>
      <trkpt lat="43.05419" lon="0.54789">
        <ele>462.642665</ele>
        <time>2022-07-24T19:07:49.640Z</time>
      </trkpt>
      <trkpt lat="43.05374" lon="0.54725">
        <ele>461.701966</ele>
        <time>2022-07-24T19:08:03.996Z</time>
      </trkpt>
      <trkpt lat="43.05307" lon="0.54671">
        <ele>460.558197</ele>
        <time>2022-07-24T19:08:20.068Z</time>
      </trkpt>
      <trkpt lat="43.05241" lon="0.54636">
        <ele>461.310248</ele>
        <time>2022-07-24T19:08:43.864Z</time>
      </trkpt>
      <trkpt lat="43.05207" lon="0.54592">
        <ele>462.352846</ele>
        <time>2022-07-24T19:09:02.609Z</time>
      </trkpt>
      <trkpt lat="43.05195" lon="0.54565">
        <ele>462.851534</ele>
        <time>2022-07-24T19:09:12.114Z</time>
      </trkpt>
      <trkpt lat="43.05189" lon="0.54512">
        <ele>463.715278</ele>
        <time>2022-07-24T19:09:30.113Z</time>
      </trkpt>
      <trkpt lat="43.05178" lon="0.54483">
        <ele>464.314075</ele>
        <time>2022-07-24T19:09:42.364Z</time>
      </trkpt>
      <trkpt lat="43.05141" lon="0.54433">
        <ele>467.104404</ele>
        <time>2022-07-24T19:10:12.768Z</time>
      </trkpt>
      <trkpt lat="43.051" lon="0.54377">
        <ele>470.172088</ele>
        <time>2022-07-24T19:10:47.618Z</time>
      </trkpt>
      <trkpt lat="43.05054" lon="0.54328">
        <ele>473.304708</ele>
        <time>2022-07-24T19:11:23.037Z</time>
      </trkpt>
      <trkpt lat="43.05008" lon="0.54286">
        <ele>475.938576</ele>
        <time>2022-07-24T19:11:56.254Z</time>
      </trkpt>
      <trkpt lat="43.04927" lon="0.54286">
        <ele>479.729024</ele>
        <time>2022-07-24T19:12:45.397Z</time>
      </trkpt>
      <trkpt lat="43.04838" lon="0.54298">
        <ele>482.760734</ele>
        <time>2022-07-24T19:13:23.090Z</time>
      </trkpt>
      <trkpt lat="43.04829" lon="0.54299">
        <ele>482.894386</ele>
        <time>2022-07-24T19:13:26.304Z</time>
      </trkpt>
      <trkpt lat="43.04787" lon="0.54301">
        <ele>483.561152</ele>
        <time>2022-07-24T19:13:40.494Z</time>
      </trkpt>
      <trkpt lat="43.04781" lon="0.5432">
        <ele>483.799953</ele>
        <time>2022-07-24T19:13:44.903Z</time>
      </trkpt>
      <trkpt lat="43.04733" lon="0.54403">
        <ele>485.026239</ele>
        <time>2022-07-24T19:14:13.570Z</time>
      </trkpt>
      <trkpt lat="43.04716" lon="0.54443">
        <ele>485.129355</ele>
        <time>2022-07-24T19:14:25.649Z</time>
      </trkpt>
      <trkpt lat="43.04698" lon="0.54469">
        <ele>485.20957</ele>
        <time>2022-07-24T19:14:34.260Z</time>
      </trkpt>
      <trkpt lat="43.04695" lon="0.5447">
        <ele>485.219002</ele>
        <time>2022-07-24T19:14:35.093Z</time>
      </trkpt>
      <trkpt lat="43.04692" lon="0.544">
        <ele>485.377177</ele>
        <time>2022-07-24T19:15:03.702Z</time>
      </trkpt>
      <trkpt lat="43.04694" lon="0.54374">
        <ele>485.436594</ele>
        <time>2022-07-24T19:15:13.568Z</time>
      </trkpt>
      <trkpt lat="43.04717" lon="0.54328">
        <ele>485.563812</ele>
        <time>2022-07-24T19:15:33.878Z</time>
      </trkpt>
      <trkpt lat="43.04694" lon="0.54374">
        <ele>484.30928</ele>
        <time>2022-07-24T19:15:53.219Z</time>
      </trkpt>
      <trkpt lat="43.04692" lon="0.544">
        <ele>483.629299</ele>
        <time>2022-07-24T19:16:01.789Z</time>
      </trkpt>
      <trkpt lat="43.04695" lon="0.5447">
        <ele>481.819128</ele>
        <time>2022-07-24T19:16:22.840Z</time>
      </trkpt>
      <trkpt lat="43.04698" lon="0.54469">
        <ele>481.711184</ele>
        <time>2022-07-24T19:16:23.245Z</time>
      </trkpt>
      <trkpt lat="43.047" lon="0.5449">
        <ele>481.161153</ele>
        <time>2022-07-24T19:16:25.373Z</time>
      </trkpt>
      <trkpt lat="43.04701" lon="0.54496">
        <ele>480.992841</ele>
        <time>2022-07-24T19:16:26.017Z</time>
      </trkpt>
      <trkpt lat="43.04703" lon="0.5453">
        <ele>480.111332</ele>
        <time>2022-07-24T19:16:29.275Z</time>
      </trkpt>
      <trkpt lat="43.04717" lon="0.54701">
        <ele>473.403496</ele>
        <time>2022-07-24T19:16:45.291Z</time>
      </trkpt>
      <trkpt lat="43.04731" lon="0.54776">
        <ele>470.149705</ele>
        <time>2022-07-24T19:16:52.575Z</time>
      </trkpt>
      <trkpt lat="43.04739" lon="0.54824">
        <ele>468.315211</ele>
        <time>2022-07-24T19:16:57.366Z</time>
      </trkpt>
      <trkpt lat="43.04748" lon="0.54891">
        <ele>466.462108</ele>
        <time>2022-07-24T19:17:03.910Z</time>
      </trkpt>
      <trkpt lat="43.04758" lon="0.54984">
        <ele>463.866264</ele>
        <time>2022-07-24T19:17:13.436Z</time>
      </trkpt>
      <trkpt lat="43.04774" lon="0.55077">
        <ele>461.936337</ele>
        <time>2022-07-24T19:17:23.862Z</time>
      </trkpt>
      <trkpt lat="43.04779" lon="0.55096">
        <ele>461.838792</ele>
        <time>2022-07-24T19:17:26.382Z</time>
      </trkpt>
      <trkpt lat="43.0479" lon="0.55134">
        <ele>461.642932</ele>
        <time>2022-07-24T19:17:31.530Z</time>
      </trkpt>
      <trkpt lat="43.048" lon="0.55237">
        <ele>461.143006</ele>
        <time>2022-07-24T19:17:46.683Z</time>
      </trkpt>
      <trkpt lat="43.04803" lon="0.55265">
        <ele>461.007994</ele>
        <time>2022-07-24T19:17:50.947Z</time>
      </trkpt>
      <trkpt lat="43.04747" lon="0.55292">
        <ele>460.933466</ele>
        <time>2022-07-24T19:18:04.208Z</time>
      </trkpt>
      <trkpt lat="43.04715" lon="0.55357">
        <ele>460.984135</ele>
        <time>2022-07-24T19:18:16.200Z</time>
      </trkpt>
      <trkpt lat="43.04694" lon="0.55384">
        <ele>461.009649</ele>
        <time>2022-07-24T19:18:22.022Z</time>
      </trkpt>
      <trkpt lat="43.04655" lon="0.55412">
        <ele>461.049169</ele>
        <time>2022-07-24T19:18:31.595Z</time>
      </trkpt>
      <trkpt lat="43.04523" lon="0.55485">
        <ele>461.537206</ele>
        <time>2022-07-24T19:19:02.361Z</time>
      </trkpt>
      <trkpt lat="43.04433" lon="0.55519">
        <ele>462.456007</ele>
        <time>2022-07-24T19:19:25.952Z</time>
      </trkpt>
      <trkpt lat="43.04406" lon="0.55554">
        <ele>463.042925</ele>
        <time>2022-07-24T19:19:36.397Z</time>
      </trkpt>
      <trkpt lat="43.04389" lon="0.55556">
        <ele>463.317444</ele>
        <time>2022-07-24T19:19:41.921Z</time>
      </trkpt>
      <trkpt lat="43.04334" lon="0.55536">
        <ele>464.208968</ele>
        <time>2022-07-24T19:20:00.976Z</time>
      </trkpt>
      <trkpt lat="43.04307" lon="0.55536">
        <ele>464.623412</ele>
        <time>2022-07-24T19:20:09.541Z</time>
      </trkpt>
      <trkpt lat="43.04273" lon="0.55554">
        <ele>465.151675</ele>
        <time>2022-07-24T19:20:21.364Z</time>
      </trkpt>
      <trkpt lat="43.04234" lon="0.55588">
        <ele>465.827065</ele>
        <time>2022-07-24T19:20:36.099Z</time>
      </trkpt>
      <trkpt lat="43.0423" lon="0.55592">
        <ele>465.902698</ele>
        <time>2022-07-24T19:20:37.611Z</time>
      </trkpt>
      <trkpt lat="43.04081" lon="0.55945">
        <ele>468.665039</ele>
        <time>2022-07-24T19:21:53.987Z</time>
      </trkpt>
      <trkpt lat="43.04056" lon="0.5598">
        <ele>468.693035</ele>
        <time>2022-07-24T19:22:01.360Z</time>
      </trkpt>
      <trkpt lat="43.04019" lon="0.56004">
        <ele>468.724548</ele>
        <time>2022-07-24T19:22:09.756Z</time>
      </trkpt>
      <trkpt lat="43.03984" lon="0.56014">
        <ele>468.752446</ele>
        <time>2022-07-24T19:22:17.065Z</time>
      </trkpt>
      <trkpt lat="43.03897" lon="0.56024">
        <ele>468.392676</ele>
        <time>2022-07-24T19:22:33.279Z</time>
      </trkpt>
      <trkpt lat="43.03864" lon="0.56035">
        <ele>468.131695</ele>
        <time>2022-07-24T19:22:39.450Z</time>
      </trkpt>
      <trkpt lat="43.03724" lon="0.56171">
        <ele>466.316599</ele>
        <time>2022-07-24T19:23:09.122Z</time>
      </trkpt>
      <trkpt lat="43.03688" lon="0.56198">
        <ele>465.729025</ele>
        <time>2022-07-24T19:23:15.837Z</time>
      </trkpt>
      <trkpt lat="43.03634" lon="0.56217">
        <ele>464.944471</ele>
        <time>2022-07-24T19:23:24.954Z</time>
      </trkpt>
      <trkpt lat="43.03579" lon="0.56251">
        <ele>463.167464</ele>
        <time>2022-07-24T19:23:33.478Z</time>
      </trkpt>
      <trkpt lat="43.03567" lon="0.56286">
        <ele>462.270254</ele>
        <time>2022-07-24T19:23:39.282Z</time>
      </trkpt>
      <trkpt lat="43.03566" lon="0.56302">
        <ele>461.908015</ele>
        <time>2022-07-24T19:23:41.664Z</time>
      </trkpt>
      <trkpt lat="43.03581" lon="0.56363">
        <ele>460.449684</ele>
        <time>2022-07-24T19:23:51.426Z</time>
      </trkpt>
      <trkpt lat="43.03577" lon="0.56398">
        <ele>459.653509</ele>
        <time>2022-07-24T19:23:56.473Z</time>
      </trkpt>
      <trkpt lat="43.0353" lon="0.56479">
        <ele>457.762779</ele>
        <time>2022-07-24T19:24:11.774Z</time>
      </trkpt>
      <trkpt lat="43.03536" lon="0.56575">
        <ele>456.112315</ele>
        <time>2022-07-24T19:24:26.476Z</time>
      </trkpt>
      <trkpt lat="43.03533" lon="0.56608">
        <ele>455.54496</ele>
        <time>2022-07-24T19:24:32.769Z</time>
      </trkpt>
      <trkpt lat="43.03496" lon="0.56673">
        <ele>455.031119</ele>
        <time>2022-07-24T19:24:49.200Z</time>
      </trkpt>
      <trkpt lat="43.03478" lon="0.56724">
        <ele>455.018141</ele>
        <time>2022-07-24T19:25:01.032Z</time>
      </trkpt>
      <trkpt lat="43.03443" lon="0.56792">
        <ele>454.999034</ele>
        <time>2022-07-24T19:25:19.266Z</time>
      </trkpt>
      <trkpt lat="43.03434" lon="0.56838">
        <ele>454.988251</ele>
        <time>2022-07-24T19:25:29.278Z</time>
      </trkpt>
      <trkpt lat="43.03429" lon="0.56905">
        <ele>455.040579</ele>
        <time>2022-07-24T19:25:43.145Z</time>
      </trkpt>
      <trkpt lat="43.03393" lon="0.56948">
        <ele>455.097343</ele>
        <time>2022-07-24T19:25:57.191Z</time>
      </trkpt>
      <trkpt lat="43.03367" lon="0.57068">
        <ele>455.205198</ele>
        <time>2022-07-24T19:26:17.150Z</time>
      </trkpt>
      <trkpt lat="43.03357" lon="0.57168">
        <ele>455.28885</ele>
        <time>2022-07-24T19:26:32.802Z</time>
      </trkpt>
      <trkpt lat="43.03344" lon="0.57212">
        <ele>455.328495</ele>
        <time>2022-07-24T19:26:40.000Z</time>
      </trkpt>
      <trkpt lat="43.03333" lon="0.57382">
        <ele>455.444404</ele>
        <time>2022-07-24T19:27:07.250Z</time>
      </trkpt>
      <trkpt lat="43.03329" lon="0.57464">
        <ele>455.48557</ele>
        <time>2022-07-24T19:27:19.560Z</time>
      </trkpt>
      <trkpt lat="43.03337" lon="0.57588">
        <ele>455.636863</ele>
        <time>2022-07-24T19:27:38.503Z</time>
      </trkpt>
      <trkpt lat="43.0334" lon="0.57641">
        <ele>455.780031</ele>
        <time>2022-07-24T19:27:46.956Z</time>
      </trkpt>
      <trkpt lat="43.03336" lon="0.57748">
        <ele>456.067753</ele>
        <time>2022-07-24T19:28:05.026Z</time>
      </trkpt>
      <trkpt lat="43.0333" lon="0.57761">
        <ele>456.108348</ele>
        <time>2022-07-24T19:28:07.838Z</time>
      </trkpt>
      <trkpt lat="43.03343" lon="0.57815">
        <ele>456.367196</ele>
        <time>2022-07-24T19:28:17.963Z</time>
      </trkpt>
      <trkpt lat="43.03353" lon="0.57836">
        <ele>456.525716</ele>
        <time>2022-07-24T19:28:22.215Z</time>
      </trkpt>
      <trkpt lat="43.03363" lon="0.57855">
        <ele>456.674722</ele>
        <time>2022-07-24T19:28:26.949Z</time>
      </trkpt>
      <trkpt lat="43.03363" lon="0.57877">
        <ele>456.811575</ele>
        <time>2022-07-24T19:28:30.838Z</time>
      </trkpt>
      <trkpt lat="43.03343" lon="0.5798">
        <ele>457.498288</ele>
        <time>2022-07-24T19:28:51.684Z</time>
      </trkpt>
      <trkpt lat="43.03329" lon="0.58058">
        <ele>457.838926</ele>
        <time>2022-07-24T19:29:07.025Z</time>
      </trkpt>
      <trkpt lat="43.03312" lon="0.58172">
        <ele>458.05478</ele>
        <time>2022-07-24T19:29:27.578Z</time>
      </trkpt>
      <trkpt lat="43.0331" lon="0.58265">
        <ele>458.216224</ele>
        <time>2022-07-24T19:29:40.711Z</time>
      </trkpt>
      <trkpt lat="43.03308" lon="0.58311">
        <ele>457.922734</ele>
        <time>2022-07-24T19:29:46.540Z</time>
      </trkpt>
      <trkpt lat="43.03312" lon="0.5835">
        <ele>457.679248</ele>
        <time>2022-07-24T19:29:51.293Z</time>
      </trkpt>
      <trkpt lat="43.03335" lon="0.58473">
        <ele>456.879662</ele>
        <time>2022-07-24T19:30:07.049Z</time>
      </trkpt>
      <trkpt lat="43.0334" lon="0.58512">
        <ele>456.685233</ele>
        <time>2022-07-24T19:30:12.173Z</time>
      </trkpt>
      <trkpt lat="43.0335" lon="0.58551">
        <ele>456.743411</ele>
        <time>2022-07-24T19:30:17.698Z</time>
      </trkpt>
      <trkpt lat="43.03381" lon="0.58621">
        <ele>456.858942</ele>
        <time>2022-07-24T19:30:30.048Z</time>
      </trkpt>
      <trkpt lat="43.03413" lon="0.58717">
        <ele>457.006663</ele>
        <time>2022-07-24T19:30:51.473Z</time>
      </trkpt>
      <trkpt lat="43.03443" lon="0.58795">
        <ele>456.282986</ele>
        <time>2022-07-24T19:31:04.969Z</time>
      </trkpt>
      <trkpt lat="43.03453" lon="0.58868">
        <ele>455.580809</ele>
        <time>2022-07-24T19:31:14.056Z</time>
      </trkpt>
      <trkpt lat="43.03465" lon="0.59004">
        <ele>453.500608</ele>
        <time>2022-07-24T19:31:28.776Z</time>
      </trkpt>
      <trkpt lat="43.03483" lon="0.59104">
        <ele>450.699582</ele>
        <time>2022-07-24T19:31:38.984Z</time>
      </trkpt>
      <trkpt lat="43.03476" lon="0.59234">
        <ele>447.594798</ele>
        <time>2022-07-24T19:31:51.820Z</time>
      </trkpt>
      <trkpt lat="43.03485" lon="0.59307">
        <ele>446.625169</ele>
        <time>2022-07-24T19:31:59.948Z</time>
      </trkpt>
      <trkpt lat="43.0353" lon="0.59315">
        <ele>445.812071</ele>
        <time>2022-07-24T19:32:07.322Z</time>
      </trkpt>
      <trkpt lat="43.03558" lon="0.59326">
        <ele>445.281426</ele>
        <time>2022-07-24T19:32:12.472Z</time>
      </trkpt>
      <trkpt lat="43.03579" lon="0.59331">
        <ele>444.895194</ele>
        <time>2022-07-24T19:32:16.604Z</time>
      </trkpt>
      <trkpt lat="43.03577" lon="0.59459">
        <ele>445.454435</ele>
        <time>2022-07-24T19:32:36.308Z</time>
      </trkpt>
      <trkpt lat="43.03582" lon="0.59504">
        <ele>445.723337</ele>
        <time>2022-07-24T19:32:46.603Z</time>
      </trkpt>
      <trkpt lat="43.03626" lon="0.59615">
        <ele>446.509048</ele>
        <time>2022-07-24T19:33:14.368Z</time>
      </trkpt>
      <trkpt lat="43.03665" lon="0.59772">
        <ele>447.645312</ele>
        <time>2022-07-24T19:33:45.694Z</time>
      </trkpt>
      <trkpt lat="43.03735" lon="0.5997">
        <ele>448.194222</ele>
        <time>2022-07-24T19:34:21.470Z</time>
      </trkpt>
      <trkpt lat="43.03748" lon="0.6">
        <ele>448.252842</ele>
        <time>2022-07-24T19:34:26.853Z</time>
      </trkpt>
      <trkpt lat="43.03766" lon="0.60072">
        <ele>448.334534</ele>
        <time>2022-07-24T19:34:38.058Z</time>
      </trkpt>
      <trkpt lat="43.03757" lon="0.60174">
        <ele>448.413638</ele>
        <time>2022-07-24T19:34:54.074Z</time>
      </trkpt>
      <trkpt lat="43.03754" lon="0.60309">
        <ele>448.606277</ele>
        <time>2022-07-24T19:35:15.344Z</time>
      </trkpt>
      <trkpt lat="43.03722" lon="0.60459">
        <ele>449.073815</ele>
        <time>2022-07-24T19:35:40.421Z</time>
      </trkpt>
      <trkpt lat="43.0371" lon="0.60499">
        <ele>449.204838</ele>
        <time>2022-07-24T19:35:48.624Z</time>
      </trkpt>
      <trkpt lat="43.03684" lon="0.60546">
        <ele>449.751453</ele>
        <time>2022-07-24T19:36:00.068Z</time>
      </trkpt>
      <trkpt lat="43.03676" lon="0.6057">
        <ele>450.012764</ele>
        <time>2022-07-24T19:36:05.666Z</time>
      </trkpt>
      <trkpt lat="43.03677" lon="0.6061">
        <ele>450.416346</ele>
        <time>2022-07-24T19:36:14.752Z</time>
      </trkpt>
      <trkpt lat="43.03685" lon="0.60632">
        <ele>450.658638</ele>
        <time>2022-07-24T19:36:19.502Z</time>
      </trkpt>
      <trkpt lat="43.03694" lon="0.60654">
        <ele>450.911303</ele>
        <time>2022-07-24T19:36:25.565Z</time>
      </trkpt>
      <trkpt lat="43.03693" lon="0.60685">
        <ele>451.220475</ele>
        <time>2022-07-24T19:36:31.772Z</time>
      </trkpt>
      <trkpt lat="43.03671" lon="0.60731">
        <ele>451.760735</ele>
        <time>2022-07-24T19:36:43.586Z</time>
      </trkpt>
      <trkpt lat="43.03657" lon="0.6079">
        <ele>452.284173</ele>
        <time>2022-07-24T19:36:56.890Z</time>
      </trkpt>
      <trkpt lat="43.0365" lon="0.6082">
        <ele>452.554945</ele>
        <time>2022-07-24T19:37:03.054Z</time>
      </trkpt>
      <trkpt lat="43.03626" lon="0.60876">
        <ele>453.104308</ele>
        <time>2022-07-24T19:37:16.061Z</time>
      </trkpt>
      <trkpt lat="43.03603" lon="0.61002">
        <ele>454.079258</ele>
        <time>2022-07-24T19:37:40.590Z</time>
      </trkpt>
      <trkpt lat="43.03589" lon="0.61045">
        <ele>454.364665</ele>
        <time>2022-07-24T19:37:49.153Z</time>
      </trkpt>
      <trkpt lat="43.03552" lon="0.61113">
        <ele>454.870194</ele>
        <time>2022-07-24T19:38:04.381Z</time>
      </trkpt>
      <trkpt lat="43.03532" lon="0.61177">
        <ele>455.294094</ele>
        <time>2022-07-24T19:38:17.433Z</time>
      </trkpt>
      <trkpt lat="43.03528" lon="0.6122">
        <ele>455.576427</ele>
        <time>2022-07-24T19:38:25.514Z</time>
      </trkpt>
      <trkpt lat="43.03539" lon="0.61326">
        <ele>456.288595</ele>
        <time>2022-07-24T19:38:45.234Z</time>
      </trkpt>
      <trkpt lat="43.03538" lon="0.61396">
        <ele>456.749002</ele>
        <time>2022-07-24T19:38:58.587Z</time>
      </trkpt>
      <trkpt lat="43.03542" lon="0.61429">
        <ele>457.08479</ele>
        <time>2022-07-24T19:39:04.884Z</time>
      </trkpt>
      <trkpt lat="43.03557" lon="0.61488">
        <ele>458.048874</ele>
        <time>2022-07-24T19:39:17.700Z</time>
      </trkpt>
      <trkpt lat="43.03558" lon="0.61524">
        <ele>458.59357</ele>
        <time>2022-07-24T19:39:25.211Z</time>
      </trkpt>
      <trkpt lat="43.03553" lon="0.61555">
        <ele>459.083043</ele>
        <time>2022-07-24T19:39:32.924Z</time>
      </trkpt>
      <trkpt lat="43.03551" lon="0.61565">
        <ele>459.230628</ele>
        <time>2022-07-24T19:39:35.047Z</time>
      </trkpt>
      <trkpt lat="43.03549" lon="0.61576">
        <ele>459.412942</ele>
        <time>2022-07-24T19:39:37.932Z</time>
      </trkpt>
      <trkpt lat="43.03542" lon="0.61714">
        <ele>462.272399</ele>
        <time>2022-07-24T19:40:16.873Z</time>
      </trkpt>
      <trkpt lat="43.0348" lon="0.61884">
        <ele>467.601133</ele>
        <time>2022-07-24T19:41:18.181Z</time>
      </trkpt>
      <trkpt lat="43.03468" lon="0.61906">
        <ele>468.319657</ele>
        <time>2022-07-24T19:41:26.885Z</time>
      </trkpt>
      <trkpt lat="43.03442" lon="0.6199">
        <ele>470.750165</ele>
        <time>2022-07-24T19:41:54.688Z</time>
      </trkpt>
      <trkpt lat="43.03411" lon="0.62031">
        <ele>472.306128</ele>
        <time>2022-07-24T19:42:12.695Z</time>
      </trkpt>
      <trkpt lat="43.03401" lon="0.62042">
        <ele>472.771532</ele>
        <time>2022-07-24T19:42:18.173Z</time>
      </trkpt>
      <trkpt lat="43.03357" lon="0.62086">
        <ele>474.49381</ele>
        <time>2022-07-24T19:42:38.909Z</time>
      </trkpt>
      <trkpt lat="43.03337" lon="0.6212">
        <ele>475.243603</ele>
        <time>2022-07-24T19:42:50.314Z</time>
      </trkpt>
      <trkpt lat="43.03289" lon="0.62153">
        <ele>476.51486</ele>
        <time>2022-07-24T19:43:08.914Z</time>
      </trkpt>
      <trkpt lat="43.03306" lon="0.62164">
        <ele>476.961962</ele>
        <time>2022-07-24T19:43:14.850Z</time>
      </trkpt>
      <trkpt lat="43.03477" lon="0.62215">
        <ele>480.65375</ele>
        <time>2022-07-24T19:44:08.247Z</time>
      </trkpt>
      <trkpt lat="43.03497" lon="0.6221">
        <ele>481.062468</ele>
        <time>2022-07-24T19:44:13.934Z</time>
      </trkpt>
      <trkpt lat="43.03523" lon="0.62184">
        <ele>481.707632</ele>
        <time>2022-07-24T19:44:25.191Z</time>
      </trkpt>
      <trkpt lat="43.03566" lon="0.62179">
        <ele>482.85574</ele>
        <time>2022-07-24T19:44:41.975Z</time>
      </trkpt>
      <trkpt lat="43.03581" lon="0.62171">
        <ele>483.318755</ele>
        <time>2022-07-24T19:44:48.176Z</time>
      </trkpt>
      <trkpt lat="43.03606" lon="0.62145">
        <ele>484.211144</ele>
        <time>2022-07-24T19:44:59.713Z</time>
      </trkpt>
      <trkpt lat="43.03616" lon="0.62143">
        <ele>484.489876</ele>
        <time>2022-07-24T19:45:03.263Z</time>
      </trkpt>
      <trkpt lat="43.03636" lon="0.62155">
        <ele>485.098791</ele>
        <time>2022-07-24T19:45:10.706Z</time>
      </trkpt>
      <trkpt lat="43.0366" lon="0.62196">
        <ele>486.179947</ele>
        <time>2022-07-24T19:45:24.376Z</time>
      </trkpt>
      <trkpt lat="43.03668" lon="0.62206">
        <ele>486.500178</ele>
        <time>2022-07-24T19:45:28.272Z</time>
      </trkpt>
      <trkpt lat="43.03691" lon="0.62217">
        <ele>487.197956</ele>
        <time>2022-07-24T19:45:36.782Z</time>
      </trkpt>
      <trkpt lat="43.03772" lon="0.62199">
        <ele>489.801164</ele>
        <time>2022-07-24T19:46:10.950Z</time>
      </trkpt>
      <trkpt lat="43.03829" lon="0.62199">
        <ele>491.599148</ele>
        <time>2022-07-24T19:46:33.933Z</time>
      </trkpt>
      <trkpt lat="43.03937" lon="0.62225">
        <ele>493.050171</ele>
        <time>2022-07-24T19:47:10.691Z</time>
      </trkpt>
      <trkpt lat="43.03951" lon="0.62227">
        <ele>493.122793</ele>
        <time>2022-07-24T19:47:14.785Z</time>
      </trkpt>
      <trkpt lat="43.03995" lon="0.62239">
        <ele>493.359441</ele>
        <time>2022-07-24T19:47:24.360Z</time>
      </trkpt>
      <trkpt lat="43.04038" lon="0.62263">
        <ele>493.563025</ele>
        <time>2022-07-24T19:47:31.794Z</time>
      </trkpt>
      <trkpt lat="43.04165" lon="0.62294">
        <ele>490.600488</ele>
        <time>2022-07-24T19:47:50.054Z</time>
      </trkpt>
      <trkpt lat="43.04202" lon="0.62305">
        <ele>489.729582</ele>
        <time>2022-07-24T19:47:55.678Z</time>
      </trkpt>
      <trkpt lat="43.04237" lon="0.6233">
        <ele>489.846514</ele>
        <time>2022-07-24T19:48:02.554Z</time>
      </trkpt>
      <trkpt lat="43.04298" lon="0.62406">
        <ele>491.021882</ele>
        <time>2022-07-24T19:48:27.593Z</time>
      </trkpt>
      <trkpt lat="43.04436" lon="0.62518">
        <ele>492.564381</ele>
        <time>2022-07-24T19:49:25.675Z</time>
      </trkpt>
      <trkpt lat="43.04593" lon="0.62705">
        <ele>489.978114</ele>
        <time>2022-07-24T19:49:59.027Z</time>
      </trkpt>
      <trkpt lat="43.04772" lon="0.6287">
        <ele>481.077617</ele>
        <time>2022-07-24T19:50:27.855Z</time>
      </trkpt>
      <trkpt lat="43.0504" lon="0.63098">
        <ele>465.265445</ele>
        <time>2022-07-24T19:51:08.717Z</time>
      </trkpt>
      <trkpt lat="43.05081" lon="0.63122">
        <ele>463.572639</ele>
        <time>2022-07-24T19:51:15.739Z</time>
      </trkpt>
      <trkpt lat="43.05165" lon="0.63143">
        <ele>462.578674</ele>
        <time>2022-07-24T19:51:32.959Z</time>
      </trkpt>
      <trkpt lat="43.05223" lon="0.63175">
        <ele>462.538543</ele>
        <time>2022-07-24T19:51:48.236Z</time>
      </trkpt>
      <trkpt lat="43.05255" lon="0.63205">
        <ele>462.513053</ele>
        <time>2022-07-24T19:51:56.716Z</time>
      </trkpt>
      <trkpt lat="43.05291" lon="0.6325">
        <ele>461.870615</ele>
        <time>2022-07-24T19:52:05.758Z</time>
      </trkpt>
      <trkpt lat="43.05313" lon="0.63304">
        <ele>460.965842</ele>
        <time>2022-07-24T19:52:13.353Z</time>
      </trkpt>
      <trkpt lat="43.05327" lon="0.63366">
        <ele>460.026085</ele>
        <time>2022-07-24T19:52:20.423Z</time>
      </trkpt>
      <trkpt lat="43.0535" lon="0.63412">
        <ele>459.215828</ele>
        <time>2022-07-24T19:52:26.166Z</time>
      </trkpt>
      <trkpt lat="43.05377" lon="0.63437">
        <ele>458.220506</ele>
        <time>2022-07-24T19:52:30.722Z</time>
      </trkpt>
      <trkpt lat="43.05699" lon="0.63539">
        <ele>445.626475</ele>
        <time>2022-07-24T19:53:15.635Z</time>
      </trkpt>
      <trkpt lat="43.05728" lon="0.63544">
        <ele>445.074215</ele>
        <time>2022-07-24T19:53:20.914Z</time>
      </trkpt>
      <trkpt lat="43.05779" lon="0.63535">
        <ele>444.74283</ele>
        <time>2022-07-24T19:53:29.616Z</time>
      </trkpt>
      <trkpt lat="43.05797" lon="0.63546">
        <ele>444.613066</ele>
        <time>2022-07-24T19:53:34.762Z</time>
      </trkpt>
      <trkpt lat="43.05843" lon="0.63619">
        <ele>444.155548</ele>
        <time>2022-07-24T19:53:48.246Z</time>
      </trkpt>
      <trkpt lat="43.05872" lon="0.63639">
        <ele>443.911399</ele>
        <time>2022-07-24T19:53:55.026Z</time>
      </trkpt>
      <trkpt lat="43.05903" lon="0.63647">
        <ele>443.608986</ele>
        <time>2022-07-24T19:54:02.230Z</time>
      </trkpt>
      <trkpt lat="43.05966" lon="0.63627">
        <ele>443.005092</ele>
        <time>2022-07-24T19:54:13.464Z</time>
      </trkpt>
      <trkpt lat="43.05984" lon="0.63621">
        <ele>442.82751</ele>
        <time>2022-07-24T19:54:16.635Z</time>
      </trkpt>
      <trkpt lat="43.06021" lon="0.63622">
        <ele>442.483577</ele>
        <time>2022-07-24T19:54:22.393Z</time>
      </trkpt>
      <trkpt lat="43.06064" lon="0.63637">
        <ele>441.895575</ele>
        <time>2022-07-24T19:54:29.279Z</time>
      </trkpt>
      <trkpt lat="43.06219" lon="0.63713">
        <ele>439.280067</ele>
        <time>2022-07-24T19:54:56.037Z</time>
      </trkpt>
      <trkpt lat="43.06271" lon="0.63738">
        <ele>438.109669</ele>
        <time>2022-07-24T19:55:04.436Z</time>
      </trkpt>
      <trkpt lat="43.06413" lon="0.63844">
        <ele>434.032577</ele>
        <time>2022-07-24T19:55:28.829Z</time>
      </trkpt>
      <trkpt lat="43.06539" lon="0.64">
        <ele>427.959939</ele>
        <time>2022-07-24T19:55:52.150Z</time>
      </trkpt>
      <trkpt lat="43.06574" lon="0.64045">
        <ele>425.940156</ele>
        <time>2022-07-24T19:55:58.657Z</time>
      </trkpt>
      <trkpt lat="43.06586" lon="0.64054">
        <ele>425.387119</ele>
        <time>2022-07-24T19:56:00.445Z</time>
      </trkpt>
      <trkpt lat="43.06606" lon="0.64069">
        <ele>424.452554</ele>
        <time>2022-07-24T19:56:03.468Z</time>
      </trkpt>
      <trkpt lat="43.06708" lon="0.64113">
        <ele>420.810292</ele>
        <time>2022-07-24T19:56:18.224Z</time>
      </trkpt>
      <trkpt lat="43.06716" lon="0.64078">
        <ele>420.145237</ele>
        <time>2022-07-24T19:56:23.687Z</time>
      </trkpt>
      <trkpt lat="43.06761" lon="0.64002">
        <ele>418.317427</ele>
        <time>2022-07-24T19:56:39.412Z</time>
      </trkpt>
      <trkpt lat="43.06827" lon="0.64048">
        <ele>417.005717</ele>
        <time>2022-07-24T19:56:56.624Z</time>
      </trkpt>
      <trkpt lat="43.06865" lon="0.64084">
        <ele>416.449846</ele>
        <time>2022-07-24T19:57:07.798Z</time>
      </trkpt>
      <trkpt lat="43.06889" lon="0.64085">
        <ele>416.1675</ele>
        <time>2022-07-24T19:57:13.398Z</time>
      </trkpt>
      <trkpt lat="43.0693" lon="0.64044">
        <ele>415.553068</ele>
        <time>2022-07-24T19:57:25.686Z</time>
      </trkpt>
      <trkpt lat="43.06963" lon="0.64026">
        <ele>415.186388</ele>
        <time>2022-07-24T19:57:34.293Z</time>
      </trkpt>
      <trkpt lat="43.07078" lon="0.63965">
        <ele>414.088432</ele>
        <time>2022-07-24T19:58:04.429Z</time>
      </trkpt>
      <trkpt lat="43.07205" lon="0.63929">
        <ele>413.091672</ele>
        <time>2022-07-24T19:58:37.523Z</time>
      </trkpt>
      <trkpt lat="43.0721" lon="0.63912">
        <ele>412.997961</ele>
        <time>2022-07-24T19:58:40.095Z</time>
      </trkpt>
      <trkpt lat="43.07223" lon="0.63881">
        <ele>412.808036</ele>
        <time>2022-07-24T19:58:44.714Z</time>
      </trkpt>
      <trkpt lat="43.07338" lon="0.63672">
        <ele>411.182639</ele>
        <time>2022-07-24T19:59:17.919Z</time>
      </trkpt>
      <trkpt lat="43.07384" lon="0.63608">
        <ele>410.691637</ele>
        <time>2022-07-24T19:59:29.174Z</time>
      </trkpt>
      <trkpt lat="43.07628" lon="0.63406">
        <ele>409.346356</ele>
        <time>2022-07-24T20:00:22.261Z</time>
      </trkpt>
      <trkpt lat="43.07864" lon="0.63212">
        <ele>408.93465</ele>
        <time>2022-07-24T20:01:18.571Z</time>
      </trkpt>
      <trkpt lat="43.07901" lon="0.63181">
        <ele>408.853396</ele>
        <time>2022-07-24T20:01:27.000Z</time>
      </trkpt>
      <trkpt lat="43.07998" lon="0.63107">
        <ele>408.658641</ele>
        <time>2022-07-24T20:01:48.685Z</time>
      </trkpt>
      <trkpt lat="43.08011" lon="0.63108">
        <ele>408.640006</ele>
        <time>2022-07-24T20:01:51.396Z</time>
      </trkpt>
      <trkpt lat="43.08023" lon="0.63085">
        <ele>408.612026</ele>
        <time>2022-07-24T20:01:55.375Z</time>
      </trkpt>
      <trkpt lat="43.08087" lon="0.63026">
        <ele>408.506272</ele>
        <time>2022-07-24T20:02:10.642Z</time>
      </trkpt>
      <trkpt lat="43.0822" lon="0.62918">
        <ele>408.688689</ele>
        <time>2022-07-24T20:02:43.576Z</time>
      </trkpt>
      <trkpt lat="43.0838" lon="0.62788">
        <ele>409.317156</ele>
        <time>2022-07-24T20:03:26.984Z</time>
      </trkpt>
      <trkpt lat="43.08443" lon="0.62734">
        <ele>409.608396</ele>
        <time>2022-07-24T20:03:43.692Z</time>
      </trkpt>
      <trkpt lat="43.08465" lon="0.62702">
        <ele>409.710579</ele>
        <time>2022-07-24T20:03:51.026Z</time>
      </trkpt>
      <trkpt lat="43.08484" lon="0.62675">
        <ele>409.795513</ele>
        <time>2022-07-24T20:03:56.959Z</time>
      </trkpt>
      <trkpt lat="43.0851" lon="0.62623">
        <ele>409.937989</ele>
        <time>2022-07-24T20:04:07.040Z</time>
      </trkpt>
      <trkpt lat="43.08561" lon="0.62486">
        <ele>410.362197</ele>
        <time>2022-07-24T20:04:32.396Z</time>
      </trkpt>
      <trkpt lat="43.08651" lon="0.62218">
        <ele>411.521776</ele>
        <time>2022-07-24T20:05:23.643Z</time>
      </trkpt>
      <trkpt lat="43.08696" lon="0.62017">
        <ele>412.622047</ele>
        <time>2022-07-24T20:06:01.918Z</time>
      </trkpt>
      <trkpt lat="43.0874" lon="0.61919">
        <ele>413.304679</ele>
        <time>2022-07-24T20:06:23.625Z</time>
      </trkpt>
      <trkpt lat="43.08762" lon="0.61898">
        <ele>413.525688</ele>
        <time>2022-07-24T20:06:30.639Z</time>
      </trkpt>
      <trkpt lat="43.08741" lon="0.61777">
        <ele>413.79752</ele>
        <time>2022-07-24T20:06:52.636Z</time>
      </trkpt>
      <trkpt lat="43.08776" lon="0.61765">
        <ele>413.881596</ele>
        <time>2022-07-24T20:07:03.459Z</time>
      </trkpt>
      <trkpt lat="43.08884" lon="0.61871">
        <ele>413.241711</ele>
        <time>2022-07-24T20:07:38.544Z</time>
      </trkpt>
      <trkpt lat="43.08885" lon="0.61872">
        <ele>413.227531</ele>
        <time>2022-07-24T20:07:38.781Z</time>
      </trkpt>
      <trkpt lat="43.08927" lon="0.61905">
        <ele>412.673366</ele>
        <time>2022-07-24T20:07:50.542Z</time>
      </trkpt>
      <trkpt lat="43.08936" lon="0.61916">
        <ele>412.535179</ele>
        <time>2022-07-24T20:07:53.378Z</time>
      </trkpt>
      <trkpt lat="43.08953" lon="0.61961">
        <ele>412.118036</ele>
        <time>2022-07-24T20:08:01.936Z</time>
      </trkpt>
      <trkpt lat="43.09001" lon="0.62233">
        <ele>406.981316</ele>
        <time>2022-07-24T20:08:45.137Z</time>
      </trkpt>
      <trkpt lat="43.0901" lon="0.62249">
        <ele>406.512361</ele>
        <time>2022-07-24T20:08:48.118Z</time>
      </trkpt>
      <trkpt lat="43.0903" lon="0.62262">
        <ele>405.814767</ele>
        <time>2022-07-24T20:08:52.654Z</time>
      </trkpt>
      <trkpt lat="43.0904" lon="0.62265">
        <ele>405.51161</ele>
        <time>2022-07-24T20:08:54.558Z</time>
      </trkpt>
      <trkpt lat="43.09051" lon="0.6228">
        <ele>405.02447</ele>
        <time>2022-07-24T20:08:57.655Z</time>
      </trkpt>
      <trkpt lat="43.09155" lon="0.62534">
        <ele>399.065645</ele>
        <time>2022-07-24T20:09:41.209Z</time>
      </trkpt>
      <trkpt lat="43.09189" lon="0.62588">
        <ele>397.755212</ele>
        <time>2022-07-24T20:09:53.085Z</time>
      </trkpt>
      <trkpt lat="43.09197" lon="0.62592">
        <ele>397.540279</ele>
        <time>2022-07-24T20:09:55.051Z</time>
      </trkpt>
      <trkpt lat="43.09242" lon="0.62609">
        <ele>396.93856</ele>
        <time>2022-07-24T20:10:05.974Z</time>
      </trkpt>
      <trkpt lat="43.09263" lon="0.62633">
        <ele>396.68442</ele>
        <time>2022-07-24T20:10:12.544Z</time>
      </trkpt>
      <trkpt lat="43.09298" lon="0.62696">
        <ele>396.147296</ele>
        <time>2022-07-24T20:10:26.986Z</time>
      </trkpt>
      <trkpt lat="43.09521" lon="0.62841">
        <ele>394.561615</ele>
        <time>2022-07-24T20:11:30.797Z</time>
      </trkpt>
      <trkpt lat="43.09623" lon="0.6288">
        <ele>393.833889</ele>
        <time>2022-07-24T20:11:57.477Z</time>
      </trkpt>
      <trkpt lat="43.09669" lon="0.62904">
        <ele>393.494639</ele>
        <time>2022-07-24T20:12:10.017Z</time>
      </trkpt>
      <trkpt lat="43.09747" lon="0.6293">
        <ele>393.134763</ele>
        <time>2022-07-24T20:12:29.748Z</time>
      </trkpt>
      <trkpt lat="43.09788" lon="0.62972">
        <ele>392.93287</ele>
        <time>2022-07-24T20:12:42.742Z</time>
      </trkpt>
      <trkpt lat="43.09803" lon="0.62968">
        <ele>392.873509</ele>
        <time>2022-07-24T20:12:46.925Z</time>
      </trkpt>
      <trkpt lat="43.09809" lon="0.62946">
        <ele>392.807018</ele>
        <time>2022-07-24T20:12:51.650Z</time>
      </trkpt>
      <trkpt lat="43.09829" lon="0.62846">
        <ele>392.849893</ele>
        <time>2022-07-24T20:13:15.281Z</time>
      </trkpt>
      <trkpt lat="43.09855" lon="0.62707">
        <ele>393.264857</ele>
        <time>2022-07-24T20:13:46.727Z</time>
      </trkpt>
      <trkpt lat="43.09877" lon="0.62674">
        <ele>393.393246</ele>
        <time>2022-07-24T20:13:57.170Z</time>
      </trkpt>
      <trkpt lat="43.09922" lon="0.62687">
        <ele>393.424402</ele>
        <time>2022-07-24T20:14:08.328Z</time>
      </trkpt>
      <trkpt lat="43.10033" lon="0.62702">
        <ele>393.500306</ele>
        <time>2022-07-24T20:14:31.717Z</time>
      </trkpt>
      <trkpt lat="43.10101" lon="0.62694">
        <ele>393.336701</ele>
        <time>2022-07-24T20:14:44.260Z</time>
      </trkpt>
      <trkpt lat="43.1014" lon="0.6269">
        <ele>393.186153</ele>
        <time>2022-07-24T20:14:51.730Z</time>
      </trkpt>
      <trkpt lat="43.10185" lon="0.6268">
        <ele>393.010895</ele>
        <time>2022-07-24T20:15:00.367Z</time>
      </trkpt>
      <trkpt lat="43.10219" lon="0.62664">
        <ele>392.875419</ele>
        <time>2022-07-24T20:15:07.088Z</time>
      </trkpt>
      <trkpt lat="43.10316" lon="0.62668">
        <ele>392.788157</ele>
        <time>2022-07-24T20:15:25.847Z</time>
      </trkpt>
      <trkpt lat="43.10395" lon="0.62685">
        <ele>392.750178</ele>
        <time>2022-07-24T20:15:43.141Z</time>
      </trkpt>
      <trkpt lat="43.10451" lon="0.62713">
        <ele>392.854504</ele>
        <time>2022-07-24T20:15:56.053Z</time>
      </trkpt>
      <trkpt lat="43.10497" lon="0.62757">
        <ele>392.998002</ele>
        <time>2022-07-24T20:16:08.872Z</time>
      </trkpt>
      <trkpt lat="43.10555" lon="0.62865">
        <ele>393.179696</ele>
        <time>2022-07-24T20:16:30.990Z</time>
      </trkpt>
      <trkpt lat="43.10577" lon="0.62939">
        <ele>393.123125</ele>
        <time>2022-07-24T20:16:43.317Z</time>
      </trkpt>
      <trkpt lat="43.10586" lon="0.63011">
        <ele>393.071399</ele>
        <time>2022-07-24T20:16:53.750Z</time>
      </trkpt>
      <trkpt lat="43.1062" lon="0.63096">
        <ele>392.920509</ele>
        <time>2022-07-24T20:17:07.324Z</time>
      </trkpt>
      <trkpt lat="43.10685" lon="0.63366">
        <ele>391.917426</ele>
        <time>2022-07-24T20:17:45.656Z</time>
      </trkpt>
      <trkpt lat="43.10689" lon="0.63384">
        <ele>391.850055</ele>
        <time>2022-07-24T20:17:48.227Z</time>
      </trkpt>
      <trkpt lat="43.10711" lon="0.63475">
        <ele>391.513347</ele>
        <time>2022-07-24T20:18:01.087Z</time>
      </trkpt>
      <trkpt lat="43.10724" lon="0.63534">
        <ele>391.296159</ele>
        <time>2022-07-24T20:18:09.418Z</time>
      </trkpt>
      <trkpt lat="43.10731" lon="0.63542">
        <ele>391.2777</ele>
        <time>2022-07-24T20:18:11.097Z</time>
      </trkpt>
      <trkpt lat="43.10969" lon="0.63499">
        <ele>391.794344</ele>
        <time>2022-07-24T20:18:59.875Z</time>
      </trkpt>
      <trkpt lat="43.11013" lon="0.63498">
        <ele>392.266098</ele>
        <time>2022-07-24T20:19:13.103Z</time>
      </trkpt>
      <trkpt lat="43.11038" lon="0.63499">
        <ele>392.53631</ele>
        <time>2022-07-24T20:19:20.564Z</time>
      </trkpt>
      <trkpt lat="43.1112" lon="0.6349">
        <ele>393.57331</ele>
        <time>2022-07-24T20:19:47.129Z</time>
      </trkpt>
      <trkpt lat="43.11237" lon="0.63459">
        <ele>395.338529</ele>
        <time>2022-07-24T20:20:22.980Z</time>
      </trkpt>
      <trkpt lat="43.11298" lon="0.63441">
        <ele>395.690791</ele>
        <time>2022-07-24T20:20:37.082Z</time>
      </trkpt>
      <trkpt lat="43.1135" lon="0.63422">
        <ele>395.728617</ele>
        <time>2022-07-24T20:20:47.964Z</time>
      </trkpt>
      <trkpt lat="43.11478" lon="0.63395">
        <ele>395.909052</ele>
        <time>2022-07-24T20:21:13.720Z</time>
      </trkpt>
      <trkpt lat="43.11524" lon="0.63379">
        <ele>396.041532</ele>
        <time>2022-07-24T20:21:24.326Z</time>
      </trkpt>
      <trkpt lat="43.11585" lon="0.63317">
        <ele>396.250233</ele>
        <time>2022-07-24T20:21:41.735Z</time>
      </trkpt>
      <trkpt lat="43.11596" lon="0.63312">
        <ele>396.283338</ele>
        <time>2022-07-24T20:21:44.596Z</time>
      </trkpt>
      <trkpt lat="43.11611" lon="0.63306">
        <ele>396.378513</ele>
        <time>2022-07-24T20:21:48.441Z</time>
      </trkpt>
      <trkpt lat="43.11646" lon="0.63304">
        <ele>396.59768</ele>
        <time>2022-07-24T20:21:56.893Z</time>
      </trkpt>
      <trkpt lat="43.11674" lon="0.63318">
        <ele>396.791116</ele>
        <time>2022-07-24T20:22:04.388Z</time>
      </trkpt>
      <trkpt lat="43.11728" lon="0.63353">
        <ele>397.168588</ele>
        <time>2022-07-24T20:22:18.825Z</time>
      </trkpt>
      <trkpt lat="43.11758" lon="0.63378">
        <ele>397.393568</ele>
        <time>2022-07-24T20:22:27.515Z</time>
      </trkpt>
      <trkpt lat="43.11804" lon="0.63426">
        <ele>398.181566</ele>
        <time>2022-07-24T20:22:41.566Z</time>
      </trkpt>
      <trkpt lat="43.11835" lon="0.63439">
        <ele>398.647295</ele>
        <time>2022-07-24T20:22:49.561Z</time>
      </trkpt>
      <trkpt lat="43.11997" lon="0.63402">
        <ele>402.859789</ele>
        <time>2022-07-24T20:23:42.463Z</time>
      </trkpt>
      <trkpt lat="43.12111" lon="0.63377">
        <ele>407.860939</ele>
        <time>2022-07-24T20:24:39.228Z</time>
      </trkpt>
      <trkpt lat="43.12137" lon="0.63367">
        <ele>410.059851</ele>
        <time>2022-07-24T20:24:55.856Z</time>
      </trkpt>
      <trkpt lat="43.12186" lon="0.63329">
        <ele>414.694568</ele>
        <time>2022-07-24T20:25:31.996Z</time>
      </trkpt>
      <trkpt lat="43.12209" lon="0.63317">
        <ele>416.76025</ele>
        <time>2022-07-24T20:25:49.400Z</time>
      </trkpt>
      <trkpt lat="43.12213" lon="0.63316">
        <ele>417.093435</ele>
        <time>2022-07-24T20:25:52.237Z</time>
      </trkpt>
      <trkpt lat="43.12446" lon="0.63185">
        <ele>440.244186</ele>
        <time>2022-07-24T20:29:02.524Z</time>
      </trkpt>
      <trkpt lat="43.1248" lon="0.63175">
        <ele>442.805244</ele>
        <time>2022-07-24T20:29:27.236Z</time>
      </trkpt>
      <trkpt lat="43.12604" lon="0.63182">
        <ele>452.019147</ele>
        <time>2022-07-24T20:30:43.611Z</time>
      </trkpt>
      <trkpt lat="43.12634" lon="0.63149">
        <ele>454.180867</ele>
        <time>2022-07-24T20:31:02.218Z</time>
      </trkpt>
      <trkpt lat="43.12708" lon="0.63103">
        <ele>458.14448</ele>
        <time>2022-07-24T20:31:37.377Z</time>
      </trkpt>
      <trkpt lat="43.12766" lon="0.63044">
        <ele>461.624687</ele>
        <time>2022-07-24T20:32:11.546Z</time>
      </trkpt>
      <trkpt lat="43.12816" lon="0.62957">
        <ele>466.33087</ele>
        <time>2022-07-24T20:32:53.839Z</time>
      </trkpt>
      <trkpt lat="43.12849" lon="0.62883">
        <ele>470.015829</ele>
        <time>2022-07-24T20:33:27.883Z</time>
      </trkpt>
      <trkpt lat="43.12875" lon="0.62842">
        <ele>472.379993</ele>
        <time>2022-07-24T20:33:50.210Z</time>
      </trkpt>
      <trkpt lat="43.12915" lon="0.62804">
        <ele>475.70593</ele>
        <time>2022-07-24T20:34:18.765Z</time>
      </trkpt>
      <trkpt lat="43.12941" lon="0.62717">
        <ele>480.393866</ele>
        <time>2022-07-24T20:35:00.397Z</time>
      </trkpt>
      <trkpt lat="43.13" lon="0.62614">
        <ele>486.696321</ele>
        <time>2022-07-24T20:35:56.617Z</time>
      </trkpt>
      <trkpt lat="43.13017" lon="0.62549">
        <ele>489.824132</ele>
        <time>2022-07-24T20:36:27.953Z</time>
      </trkpt>
      <trkpt lat="43.1302" lon="0.62521">
        <ele>491.079562</ele>
        <time>2022-07-24T20:36:39.733Z</time>
      </trkpt>
      <trkpt lat="43.13004" lon="0.62447">
        <ele>494.512586</ele>
        <time>2022-07-24T20:37:09.822Z</time>
      </trkpt>
      <trkpt lat="43.1301" lon="0.62435">
        <ele>495.179511</ele>
        <time>2022-07-24T20:37:13.762Z</time>
      </trkpt>
      <trkpt lat="43.13023" lon="0.62431">
        <ele>495.669634</ele>
        <time>2022-07-24T20:37:21.885Z</time>
      </trkpt>
      <trkpt lat="43.1303" lon="0.62441">
        <ele>495.836463</ele>
        <time>2022-07-24T20:37:25.568Z</time>
      </trkpt>
      <trkpt lat="43.1304" lon="0.62439">
        <ele>495.997384</ele>
        <time>2022-07-24T20:37:28.606Z</time>
      </trkpt>
      <trkpt lat="43.13045" lon="0.62425">
        <ele>496.185346</ele>
        <time>2022-07-24T20:37:34.796Z</time>
      </trkpt>
      <trkpt lat="43.13043" lon="0.62415">
        <ele>496.299736</ele>
        <time>2022-07-24T20:37:37.860Z</time>
      </trkpt>
      <trkpt lat="43.1305" lon="0.62412">
        <ele>496.417235</ele>
        <time>2022-07-24T20:37:40.038Z</time>
      </trkpt>
      <trkpt lat="43.13056" lon="0.62397">
        <ele>496.609946</ele>
        <time>2022-07-24T20:37:42.978Z</time>
      </trkpt>
      <trkpt lat="43.13159" lon="0.62055">
        <ele>498.106247</ele>
        <time>2022-07-24T20:38:43.359Z</time>
      </trkpt>
      <trkpt lat="43.13187" lon="0.61974">
        <ele>497.637914</ele>
        <time>2022-07-24T20:38:53.067Z</time>
      </trkpt>
      <trkpt lat="43.13223" lon="0.61899">
        <ele>496.969413</ele>
        <time>2022-07-24T20:39:03.335Z</time>
      </trkpt>
      <trkpt lat="43.13251" lon="0.61876">
        <ele>496.638503</ele>
        <time>2022-07-24T20:39:08.823Z</time>
      </trkpt>
      <trkpt lat="43.13257" lon="0.61873">
        <ele>496.568845</ele>
        <time>2022-07-24T20:39:10.012Z</time>
      </trkpt>
      <trkpt lat="43.13288" lon="0.61857">
        <ele>496.240143</ele>
        <time>2022-07-24T20:39:16.242Z</time>
      </trkpt>
      <trkpt lat="43.13462" lon="0.61669">
        <ele>500.090802</ele>
        <time>2022-07-24T20:40:28.585Z</time>
      </trkpt>
      <trkpt lat="43.13664" lon="0.61448">
        <ele>503.487617</ele>
        <time>2022-07-24T20:41:44.673Z</time>
      </trkpt>
      <trkpt lat="43.13801" lon="0.61299">
        <ele>503.041586</ele>
        <time>2022-07-24T20:42:17.668Z</time>
      </trkpt>
      <trkpt lat="43.13804" lon="0.61285">
        <ele>502.954441</ele>
        <time>2022-07-24T20:42:19.397Z</time>
      </trkpt>
      <trkpt lat="43.13768" lon="0.61019">
        <ele>498.920944</ele>
        <time>2022-07-24T20:42:50.390Z</time>
      </trkpt>
      <trkpt lat="43.13771" lon="0.60994">
        <ele>498.461449</ele>
        <time>2022-07-24T20:42:52.854Z</time>
      </trkpt>
      <trkpt lat="43.13786" lon="0.60998">
        <ele>498.066295</ele>
        <time>2022-07-24T20:42:55.009Z</time>
      </trkpt>
      <trkpt lat="43.13848" lon="0.61057">
        <ele>493.352366</ele>
        <time>2022-07-24T20:43:04.941Z</time>
      </trkpt>
      <trkpt lat="43.13899" lon="0.6113">
        <ele>488.603062</ele>
        <time>2022-07-24T20:43:14.214Z</time>
      </trkpt>
      <trkpt lat="43.13938" lon="0.61161">
        <ele>485.854819</ele>
        <time>2022-07-24T20:43:19.729Z</time>
      </trkpt>
      <trkpt lat="43.13959" lon="0.61173">
        <ele>484.640674</ele>
        <time>2022-07-24T20:43:22.510Z</time>
      </trkpt>
      <trkpt lat="43.13978" lon="0.61174">
        <ele>483.652286</ele>
        <time>2022-07-24T20:43:24.816Z</time>
      </trkpt>
      <trkpt lat="43.14021" lon="0.61157">
        <ele>481.291127</ele>
        <time>2022-07-24T20:43:30.352Z</time>
      </trkpt>
      <trkpt lat="43.14029" lon="0.61157">
        <ele>480.861476</ele>
        <time>2022-07-24T20:43:31.357Z</time>
      </trkpt>
      <trkpt lat="43.14112" lon="0.61154">
        <ele>477.361149</ele>
        <time>2022-07-24T20:43:43.436Z</time>
      </trkpt>
      <trkpt lat="43.14198" lon="0.6114">
        <ele>481.47821</ele>
        <time>2022-07-24T20:44:16.237Z</time>
      </trkpt>
      <trkpt lat="43.14354" lon="0.61097">
        <ele>491.076564</ele>
        <time>2022-07-24T20:46:06.616Z</time>
      </trkpt>
      <trkpt lat="43.14472" lon="0.61041">
        <ele>499.540684</ele>
        <time>2022-07-24T20:47:21.396Z</time>
      </trkpt>
      <trkpt lat="43.14485" lon="0.61043">
        <ele>499.939246</ele>
        <time>2022-07-24T20:47:28.667Z</time>
      </trkpt>
      <trkpt lat="43.14491" lon="0.61003">
        <ele>500.864792</ele>
        <time>2022-07-24T20:47:39.591Z</time>
      </trkpt>
      <trkpt lat="43.14494" lon="0.60899">
        <ele>503.243689</ele>
        <time>2022-07-24T20:48:06.431Z</time>
      </trkpt>
      <trkpt lat="43.14482" lon="0.60737">
        <ele>504.730204</ele>
        <time>2022-07-24T20:48:36.552Z</time>
      </trkpt>
      <trkpt lat="43.1447" lon="0.60655">
        <ele>504.88439</ele>
        <time>2022-07-24T20:48:48.797Z</time>
      </trkpt>
      <trkpt lat="43.14453" lon="0.60578">
        <ele>504.951292</ele>
        <time>2022-07-24T20:48:59.580Z</time>
      </trkpt>
      <trkpt lat="43.14415" lon="0.60432">
        <ele>504.705928</ele>
        <time>2022-07-24T20:49:20.946Z</time>
      </trkpt>
      <trkpt lat="43.14408" lon="0.60403">
        <ele>504.656836</ele>
        <time>2022-07-24T20:49:25.286Z</time>
      </trkpt>
      <trkpt lat="43.14348" lon="0.60109">
        <ele>505.426134</ele>
        <time>2022-07-24T20:50:16.514Z</time>
      </trkpt>
      <trkpt lat="43.14303" lon="0.59886">
        <ele>506.761144</ele>
        <time>2022-07-24T20:50:59.199Z</time>
      </trkpt>
      <trkpt lat="43.14298" lon="0.59857">
        <ele>507.013297</ele>
        <time>2022-07-24T20:51:05.178Z</time>
      </trkpt>
      <trkpt lat="43.14265" lon="0.59647">
        <ele>508.781607</ele>
        <time>2022-07-24T20:51:48.203Z</time>
      </trkpt>
      <trkpt lat="43.14245" lon="0.59585">
        <ele>509.260947</ele>
        <time>2022-07-24T20:52:01.856Z</time>
      </trkpt>
      <trkpt lat="43.14225" lon="0.59429">
        <ele>510.37533</ele>
        <time>2022-07-24T20:52:31.981Z</time>
      </trkpt>
      <trkpt lat="43.14219" lon="0.59221">
        <ele>511.137326</ele>
        <time>2022-07-24T20:53:08.115Z</time>
      </trkpt>
      <trkpt lat="43.14211" lon="0.59147">
        <ele>511.338171</ele>
        <time>2022-07-24T20:53:19.796Z</time>
      </trkpt>
      <trkpt lat="43.14184" lon="0.58977">
        <ele>511.498311</ele>
        <time>2022-07-24T20:53:46.174Z</time>
      </trkpt>
      <trkpt lat="43.14155" lon="0.58843">
        <ele>511.972919</ele>
        <time>2022-07-24T20:54:08.831Z</time>
      </trkpt>
      <trkpt lat="43.14038" lon="0.58387">
        <ele>514.680478</ele>
        <time>2022-07-24T20:55:40.374Z</time>
      </trkpt>
      <trkpt lat="43.14017" lon="0.5826">
        <ele>515.192399</ele>
        <time>2022-07-24T20:56:02.864Z</time>
      </trkpt>
      <trkpt lat="43.14017" lon="0.58112">
        <ele>515.571415</ele>
        <time>2022-07-24T20:56:24.941Z</time>
      </trkpt>
      <trkpt lat="43.14011" lon="0.5803">
        <ele>515.743678</ele>
        <time>2022-07-24T20:56:38.492Z</time>
      </trkpt>
      <trkpt lat="43.14009" lon="0.57964">
        <ele>515.918658</ele>
        <time>2022-07-24T20:56:50.050Z</time>
      </trkpt>
      <trkpt lat="43.13951" lon="0.57693">
        <ele>517.301337</ele>
        <time>2022-07-24T20:57:42.575Z</time>
      </trkpt>
      <trkpt lat="43.1394" lon="0.57544">
        <ele>517.521071</ele>
        <time>2022-07-24T20:58:05.880Z</time>
      </trkpt>
      <trkpt lat="43.13931" lon="0.57507">
        <ele>517.579086</ele>
        <time>2022-07-24T20:58:11.544Z</time>
      </trkpt>
      <trkpt lat="43.13909" lon="0.57457">
        <ele>517.615846</ele>
        <time>2022-07-24T20:58:19.701Z</time>
      </trkpt>
      <trkpt lat="43.1384" lon="0.5729">
        <ele>517.702617</ele>
        <time>2022-07-24T20:58:49.356Z</time>
      </trkpt>
      <trkpt lat="43.1373" lon="0.57017">
        <ele>518.849944</ele>
        <time>2022-07-24T20:59:42.725Z</time>
      </trkpt>
      <trkpt lat="43.13669" lon="0.56869">
        <ele>519.828248</ele>
        <time>2022-07-24T21:00:13.943Z</time>
      </trkpt>
      <trkpt lat="43.13552" lon="0.5659">
        <ele>522.398072</ele>
        <time>2022-07-24T21:01:19.206Z</time>
      </trkpt>
      <trkpt lat="43.13428" lon="0.56253">
        <ele>524.435868</ele>
        <time>2022-07-24T21:02:26.732Z</time>
      </trkpt>
      <trkpt lat="43.13407" lon="0.56237">
        <ele>524.589791</ele>
        <time>2022-07-24T21:02:32.279Z</time>
      </trkpt>
      <trkpt lat="43.13398" lon="0.56234">
        <ele>524.655286</ele>
        <time>2022-07-24T21:02:34.533Z</time>
      </trkpt>
      <trkpt lat="43.13389" lon="0.56228">
        <ele>524.721852</ele>
        <time>2022-07-24T21:02:36.847Z</time>
      </trkpt>
      <trkpt lat="43.13383" lon="0.56216">
        <ele>524.827717</ele>
        <time>2022-07-24T21:02:39.454Z</time>
      </trkpt>
      <trkpt lat="43.13353" lon="0.56084">
        <ele>525.81695</ele>
        <time>2022-07-24T21:03:04.579Z</time>
      </trkpt>
      <trkpt lat="43.1332" lon="0.55754">
        <ele>528.812184</ele>
        <time>2022-07-24T21:04:14.652Z</time>
      </trkpt>
      <trkpt lat="43.13318" lon="0.55607">
        <ele>529.241351</ele>
        <time>2022-07-24T21:04:41.112Z</time>
      </trkpt>
      <trkpt lat="43.13324" lon="0.55368">
        <ele>529.4215</ele>
        <time>2022-07-24T21:05:15.245Z</time>
      </trkpt>
      <trkpt lat="43.13322" lon="0.55327">
        <ele>529.390797</ele>
        <time>2022-07-24T21:05:21.164Z</time>
      </trkpt>
      <trkpt lat="43.13318" lon="0.55275">
        <ele>529.352255</ele>
        <time>2022-07-24T21:05:28.984Z</time>
      </trkpt>
      <trkpt lat="43.13297" lon="0.55174">
        <ele>529.737951</ele>
        <time>2022-07-24T21:05:46.127Z</time>
      </trkpt>
      <trkpt lat="43.13236" lon="0.54944">
        <ele>530.947647</ele>
        <time>2022-07-24T21:06:31.754Z</time>
      </trkpt>
      <trkpt lat="43.13183" lon="0.54783">
        <ele>531.942572</ele>
        <time>2022-07-24T21:07:04.008Z</time>
      </trkpt>
      <trkpt lat="43.13104" lon="0.5458">
        <ele>533.393648</ele>
        <time>2022-07-24T21:07:46.454Z</time>
      </trkpt>
      <trkpt lat="43.13044" lon="0.54436">
        <ele>534.904008</ele>
        <time>2022-07-24T21:08:20.019Z</time>
      </trkpt>
      <trkpt lat="43.12992" lon="0.54269">
        <ele>536.418877</ele>
        <time>2022-07-24T21:08:57.956Z</time>
      </trkpt>
      <trkpt lat="43.12887" lon="0.53855">
        <ele>538.870829</ele>
        <time>2022-07-24T21:10:18.381Z</time>
      </trkpt>
      <trkpt lat="43.12794" lon="0.53908">
        <ele>538.892953</ele>
        <time>2022-07-24T21:10:38.650Z</time>
      </trkpt>
      <trkpt lat="43.12675" lon="0.53968">
        <ele>538.635194</ele>
        <time>2022-07-24T21:11:02.863Z</time>
      </trkpt>
      <trkpt lat="43.12667" lon="0.53971">
        <ele>538.608744</ele>
        <time>2022-07-24T21:11:04.380Z</time>
      </trkpt>
      <trkpt lat="43.12367" lon="0.54084">
        <ele>537.058969</ele>
        <time>2022-07-24T21:12:04.288Z</time>
      </trkpt>
      <trkpt lat="43.12173" lon="0.54183">
        <ele>533.017427</ele>
        <time>2022-07-24T21:12:36.755Z</time>
      </trkpt>
      <trkpt lat="43.12038" lon="0.54266">
        <ele>527.650384</ele>
        <time>2022-07-24T21:12:57.225Z</time>
      </trkpt>
      <trkpt lat="43.11988" lon="0.54315">
        <ele>524.262211</ele>
        <time>2022-07-24T21:13:05.305Z</time>
      </trkpt>
      <trkpt lat="43.11901" lon="0.54426">
        <ele>517.188493</ele>
        <time>2022-07-24T21:13:20.445Z</time>
      </trkpt>
      <trkpt lat="43.11858" lon="0.545">
        <ele>512.331147</ele>
        <time>2022-07-24T21:13:29.072Z</time>
      </trkpt>
      <trkpt lat="43.11845" lon="0.54506">
        <ele>511.361334</ele>
        <time>2022-07-24T21:13:30.779Z</time>
      </trkpt>
      <trkpt lat="43.11834" lon="0.54497">
        <ele>510.490969</ele>
        <time>2022-07-24T21:13:32.334Z</time>
      </trkpt>
      <trkpt lat="43.11741" lon="0.54229">
        <ele>495.22872</ele>
        <time>2022-07-24T21:13:59.375Z</time>
      </trkpt>
      <trkpt lat="43.11686" lon="0.54065">
        <ele>489.954827</ele>
        <time>2022-07-24T21:14:16.705Z</time>
      </trkpt>
      <trkpt lat="43.11679" lon="0.54057">
        <ele>489.611801</ele>
        <time>2022-07-24T21:14:17.927Z</time>
      </trkpt>
      <trkpt lat="43.11681" lon="0.54033">
        <ele>488.963303</ele>
        <time>2022-07-24T21:14:21.756Z</time>
      </trkpt>
      <trkpt lat="43.1164" lon="0.53752">
        <ele>489.182833</ele>
        <time>2022-07-24T21:15:30.071Z</time>
      </trkpt>
      <trkpt lat="43.11623" lon="0.53741">
        <ele>489.407682</ele>
        <time>2022-07-24T21:15:38.577Z</time>
      </trkpt>
      <trkpt lat="43.11615" lon="0.53742">
        <ele>489.499802</ele>
        <time>2022-07-24T21:15:42.105Z</time>
      </trkpt>
      <trkpt lat="43.11592" lon="0.53776">
        <ele>489.923341</ele>
        <time>2022-07-24T21:15:57.017Z</time>
      </trkpt>
      <trkpt lat="43.11546" lon="0.53784">
        <ele>490.497003</ele>
        <time>2022-07-24T21:16:16.279Z</time>
      </trkpt>
      <trkpt lat="43.11524" lon="0.53811">
        <ele>490.861705</ele>
        <time>2022-07-24T21:16:27.589Z</time>
      </trkpt>
      <trkpt lat="43.11427" lon="0.53902">
        <ele>489.884178</ele>
        <time>2022-07-24T21:16:56.520Z</time>
      </trkpt>
      <trkpt lat="43.11412" lon="0.53906">
        <ele>489.55223</ele>
        <time>2022-07-24T21:16:59.604Z</time>
      </trkpt>
      <trkpt lat="43.11383" lon="0.53895">
        <ele>488.885397</ele>
        <time>2022-07-24T21:17:05.713Z</time>
      </trkpt>
      <trkpt lat="43.113" lon="0.53859">
        <ele>487.093312</ele>
        <time>2022-07-24T21:17:23.366Z</time>
      </trkpt>
      <trkpt lat="43.11253" lon="0.53825">
        <ele>486.184135</ele>
        <time>2022-07-24T21:17:34.503Z</time>
      </trkpt>
      <trkpt lat="43.11192" lon="0.538">
        <ele>485.113075</ele>
        <time>2022-07-24T21:17:49.575Z</time>
      </trkpt>
      <trkpt lat="43.11181" lon="0.53803">
        <ele>484.929649</ele>
        <time>2022-07-24T21:17:52.020Z</time>
      </trkpt>
      <trkpt lat="43.11119" lon="0.53786">
        <ele>485.654467</ele>
        <time>2022-07-24T21:18:10.937Z</time>
      </trkpt>
      <trkpt lat="43.11105" lon="0.53774">
        <ele>486.241673</ele>
        <time>2022-07-24T21:18:16.028Z</time>
      </trkpt>
      <trkpt lat="43.11093" lon="0.53751">
        <ele>486.949206</ele>
        <time>2022-07-24T21:18:23.290Z</time>
      </trkpt>
      <trkpt lat="43.11088" lon="0.53691">
        <ele>488.52766</ele>
        <time>2022-07-24T21:18:41.726Z</time>
      </trkpt>
      <trkpt lat="43.11079" lon="0.53661">
        <ele>489.336282</ele>
        <time>2022-07-24T21:18:55.182Z</time>
      </trkpt>
      <trkpt lat="43.11027" lon="0.53593">
        <ele>493.678993</ele>
        <time>2022-07-24T21:19:50.850Z</time>
      </trkpt>
      <trkpt lat="43.10989" lon="0.53603">
        <ele>497.164852</ele>
        <time>2022-07-24T21:20:20.630Z</time>
      </trkpt>
      <trkpt lat="43.10918" lon="0.5365">
        <ele>504.428157</ele>
        <time>2022-07-24T21:21:25.829Z</time>
      </trkpt>
      <trkpt lat="43.10899" lon="0.53649">
        <ele>506.222004</ele>
        <time>2022-07-24T21:21:41.405Z</time>
      </trkpt>
      <trkpt lat="43.1088" lon="0.53635">
        <ele>508.102752</ele>
        <time>2022-07-24T21:22:00.673Z</time>
      </trkpt>
      <trkpt lat="43.10874" lon="0.53638">
        <ele>508.624537</ele>
        <time>2022-07-24T21:22:05.923Z</time>
      </trkpt>
      <trkpt lat="43.10893" lon="0.53798">
        <ele>518.567471</ele>
        <time>2022-07-24T21:23:41.515Z</time>
      </trkpt>
      <trkpt lat="43.10896" lon="0.53891">
        <ele>523.146103</ele>
        <time>2022-07-24T21:24:23.291Z</time>
      </trkpt>
      <trkpt lat="43.10886" lon="0.54019">
        <ele>526.325866</ele>
        <time>2022-07-24T21:25:12.591Z</time>
      </trkpt>
      <trkpt lat="43.10876" lon="0.54075">
        <ele>527.766572</ele>
        <time>2022-07-24T21:25:30.393Z</time>
      </trkpt>
      <trkpt lat="43.10871" lon="0.54087">
        <ele>528.106923</ele>
        <time>2022-07-24T21:25:34.427Z</time>
      </trkpt>
      <trkpt lat="43.10862" lon="0.54106">
        <ele>528.291115</ele>
        <time>2022-07-24T21:25:38.347Z</time>
      </trkpt>
      <trkpt lat="43.10866" lon="0.54113">
        <ele>528.027746</ele>
        <time>2022-07-24T21:25:40.133Z</time>
      </trkpt>
      <trkpt lat="43.10819" lon="0.54137">
        <ele>526.065702</ele>
        <time>2022-07-24T21:25:51.316Z</time>
      </trkpt>
      <trkpt lat="43.10772" lon="0.54138">
        <ele>524.19237</ele>
        <time>2022-07-24T21:26:00.669Z</time>
      </trkpt>
      <trkpt lat="43.10758" lon="0.54144">
        <ele>523.616639</ele>
        <time>2022-07-24T21:26:03.472Z</time>
      </trkpt>
      <trkpt lat="43.10738" lon="0.54165">
        <ele>522.61687</ele>
        <time>2022-07-24T21:26:08.184Z</time>
      </trkpt>
      <trkpt lat="43.10654" lon="0.54334">
        <ele>510.403943</ele>
        <time>2022-07-24T21:26:34.050Z</time>
      </trkpt>
      <trkpt lat="43.10645" lon="0.54334">
        <ele>509.524142</ele>
        <time>2022-07-24T21:26:35.597Z</time>
      </trkpt>
      <trkpt lat="43.10569" lon="0.54371">
        <ele>501.97112</ele>
        <time>2022-07-24T21:26:49.268Z</time>
      </trkpt>
      <trkpt lat="43.10473" lon="0.54402">
        <ele>492.700286</ele>
        <time>2022-07-24T21:27:06.136Z</time>
      </trkpt>
      <trkpt lat="43.10422" lon="0.54404">
        <ele>487.968697</ele>
        <time>2022-07-24T21:27:15.007Z</time>
      </trkpt>
      <trkpt lat="43.10343" lon="0.5439">
        <ele>487.403686</ele>
        <time>2022-07-24T21:27:30.177Z</time>
      </trkpt>
      <trkpt lat="43.10291" lon="0.54343">
        <ele>487.136611</ele>
        <time>2022-07-24T21:27:47.374Z</time>
      </trkpt>
      <trkpt lat="43.1024" lon="0.54273">
        <ele>490.148684</ele>
        <time>2022-07-24T21:28:38.905Z</time>
      </trkpt>
      <trkpt lat="43.10213" lon="0.5419">
        <ele>496.868642</ele>
        <time>2022-07-24T21:29:37.796Z</time>
      </trkpt>
      <trkpt lat="43.10212" lon="0.54157">
        <ele>499.286222</ele>
        <time>2022-07-24T21:29:56.894Z</time>
      </trkpt>
      <trkpt lat="43.10203" lon="0.54149">
        <ele>500.392036</ele>
        <time>2022-07-24T21:30:12.360Z</time>
      </trkpt>
      <trkpt lat="43.10181" lon="0.54218">
        <ele>505.762858</ele>
        <time>2022-07-24T21:31:01.503Z</time>
      </trkpt>
      <trkpt lat="43.10161" lon="0.54257">
        <ele>508.601361</ele>
        <time>2022-07-24T21:31:33.638Z</time>
      </trkpt>
      <trkpt lat="43.10123" lon="0.54321">
        <ele>513.525316</ele>
        <time>2022-07-24T21:32:27.383Z</time>
      </trkpt>
      <trkpt lat="43.10062" lon="0.544">
        <ele>519.645369</ele>
        <time>2022-07-24T21:33:14.475Z</time>
      </trkpt>
      <trkpt lat="43.10051" lon="0.54401">
        <ele>519.498296</ele>
        <time>2022-07-24T21:33:20.114Z</time>
      </trkpt>
      <trkpt lat="43.10027" lon="0.54368">
        <ele>519.031821</ele>
        <time>2022-07-24T21:33:32.087Z</time>
      </trkpt>
      <trkpt lat="43.0999" lon="0.54341">
        <ele>518.443057</ele>
        <time>2022-07-24T21:33:42.054Z</time>
      </trkpt>
      <trkpt lat="43.09957" lon="0.54343">
        <ele>517.980354</ele>
        <time>2022-07-24T21:33:48.800Z</time>
      </trkpt>
      <trkpt lat="43.09953" lon="0.54286">
        <ele>517.394965</ele>
        <time>2022-07-24T21:33:56.986Z</time>
      </trkpt>
      <trkpt lat="43.09916" lon="0.54285">
        <ele>515.24324</ele>
        <time>2022-07-24T21:34:03.901Z</time>
      </trkpt>
      <trkpt lat="43.09891" lon="0.5427">
        <ele>513.128302</ele>
        <time>2022-07-24T21:34:08.767Z</time>
      </trkpt>
      <trkpt lat="43.09835" lon="0.54165">
        <ele>505.702071</ele>
        <time>2022-07-24T21:34:25.282Z</time>
      </trkpt>
      <trkpt lat="43.09813" lon="0.54145">
        <ele>503.702178</ele>
        <time>2022-07-24T21:34:29.711Z</time>
      </trkpt>
      <trkpt lat="43.09768" lon="0.54131">
        <ele>500.753687</ele>
        <time>2022-07-24T21:34:37.854Z</time>
      </trkpt>
      <trkpt lat="43.09727" lon="0.54111">
        <ele>498.104351</ele>
        <time>2022-07-24T21:34:45.664Z</time>
      </trkpt>
      <trkpt lat="43.09679" lon="0.54108">
        <ele>495.194192</ele>
        <time>2022-07-24T21:34:54.528Z</time>
      </trkpt>
      <trkpt lat="43.09634" lon="0.54113">
        <ele>492.4051</ele>
        <time>2022-07-24T21:35:03.240Z</time>
      </trkpt>
      <trkpt lat="43.09578" lon="0.53962">
        <ele>490.56387</ele>
        <time>2022-07-24T21:35:30.377Z</time>
      </trkpt>
      <trkpt lat="43.09563" lon="0.53907">
        <ele>489.959269</ele>
        <time>2022-07-24T21:35:43.508Z</time>
      </trkpt>
      <trkpt lat="43.09556" lon="0.53849">
        <ele>490.13197</ele>
        <time>2022-07-24T21:35:58.698Z</time>
      </trkpt>
      <trkpt lat="43.0955" lon="0.53738">
        <ele>491.311586</ele>
        <time>2022-07-24T21:36:28.769Z</time>
      </trkpt>
      <trkpt lat="43.09532" lon="0.53635">
        <ele>492.47823</ele>
        <time>2022-07-24T21:36:57.743Z</time>
      </trkpt>
      <trkpt lat="43.09507" lon="0.5354">
        <ele>494.08669</ele>
        <time>2022-07-24T21:37:26.625Z</time>
      </trkpt>
      <trkpt lat="43.09501" lon="0.53491">
        <ele>494.892639</ele>
        <time>2022-07-24T21:37:41.452Z</time>
      </trkpt>
      <trkpt lat="43.09483" lon="0.53217">
        <ele>500.385579</ele>
        <time>2022-07-24T21:39:08.057Z</time>
      </trkpt>
      <trkpt lat="43.09441" lon="0.53227">
        <ele>501.663534</ele>
        <time>2022-07-24T21:39:29.099Z</time>
      </trkpt>
      <trkpt lat="43.09418" lon="0.53251">
        <ele>503.325666</ele>
        <time>2022-07-24T21:39:43.453Z</time>
      </trkpt>
      <trkpt lat="43.09398" lon="0.53264">
        <ele>504.592375</ele>
        <time>2022-07-24T21:39:55.211Z</time>
      </trkpt>
      <trkpt lat="43.09385" lon="0.53265">
        <ele>505.330359</ele>
        <time>2022-07-24T21:40:02.519Z</time>
      </trkpt>
      <trkpt lat="43.0936" lon="0.53253">
        <ele>506.827108</ele>
        <time>2022-07-24T21:40:17.974Z</time>
      </trkpt>
      <trkpt lat="43.09338" lon="0.53256">
        <ele>508.047983</ele>
        <time>2022-07-24T21:40:32.575Z</time>
      </trkpt>
      <trkpt lat="43.09319" lon="0.53286">
        <ele>509.694007</ele>
        <time>2022-07-24T21:40:52.293Z</time>
      </trkpt>
      <trkpt lat="43.09307" lon="0.53337">
        <ele>511.948459</ele>
        <time>2022-07-24T21:41:18.280Z</time>
      </trkpt>
      <trkpt lat="43.09303" lon="0.53403">
        <ele>515.172643</ele>
        <time>2022-07-24T21:41:51.551Z</time>
      </trkpt>
      <trkpt lat="43.09294" lon="0.53452">
        <ele>517.620457</ele>
        <time>2022-07-24T21:42:18.099Z</time>
      </trkpt>
      <trkpt lat="43.09292" lon="0.53491">
        <ele>519.516196</ele>
        <time>2022-07-24T21:42:37.968Z</time>
      </trkpt>
      <trkpt lat="43.0929" lon="0.53553">
        <ele>522.579355</ele>
        <time>2022-07-24T21:43:07.992Z</time>
      </trkpt>
      <trkpt lat="43.09312" lon="0.53668">
        <ele>525.236042</ele>
        <time>2022-07-24T21:43:54.009Z</time>
      </trkpt>
      <trkpt lat="43.09312" lon="0.53703">
        <ele>525.754763</ele>
        <time>2022-07-24T21:44:04.032Z</time>
      </trkpt>
      <trkpt lat="43.09298" lon="0.53812">
        <ele>527.385104</ele>
        <time>2022-07-24T21:44:28.613Z</time>
      </trkpt>
      <trkpt lat="43.09307" lon="0.53884">
        <ele>526.192144</ele>
        <time>2022-07-24T21:44:40.783Z</time>
      </trkpt>
      <trkpt lat="43.09306" lon="0.53914">
        <ele>525.579441</ele>
        <time>2022-07-24T21:44:45.556Z</time>
      </trkpt>
      <trkpt lat="43.09289" lon="0.5396">
        <ele>524.506171</ele>
        <time>2022-07-24T21:44:53.598Z</time>
      </trkpt>
      <trkpt lat="43.09273" lon="0.5398">
        <ele>523.887026</ele>
        <time>2022-07-24T21:44:57.857Z</time>
      </trkpt>
      <trkpt lat="43.09248" lon="0.54007">
        <ele>522.994361</ele>
        <time>2022-07-24T21:45:04.064Z</time>
      </trkpt>
      <trkpt lat="43.0921" lon="0.54048">
        <ele>520.88774</ele>
        <time>2022-07-24T21:45:13.301Z</time>
      </trkpt>
      <trkpt lat="43.09167" lon="0.54076">
        <ele>518.319463</ele>
        <time>2022-07-24T21:45:22.158Z</time>
      </trkpt>
      <trkpt lat="43.09143" lon="0.54081">
        <ele>517.010804</ele>
        <time>2022-07-24T21:45:26.568Z</time>
      </trkpt>
      <trkpt lat="43.09015" lon="0.54085">
        <ele>510.942006</ele>
        <time>2022-07-24T21:45:50.357Z</time>
      </trkpt>
      <trkpt lat="43.08976" lon="0.54068">
        <ele>509.409642</ele>
        <time>2022-07-24T21:45:58.289Z</time>
      </trkpt>
      <trkpt lat="43.08932" lon="0.54082">
        <ele>507.769778</ele>
        <time>2022-07-24T21:46:07.222Z</time>
      </trkpt>
      <trkpt lat="43.08804" lon="0.54097">
        <ele>506.099357</ele>
        <time>2022-07-24T21:46:38.022Z</time>
      </trkpt>
      <trkpt lat="43.08849" lon="0.53779">
        <ele>506.952279</ele>
        <time>2022-07-24T21:47:42.177Z</time>
      </trkpt>
      <trkpt lat="43.08593" lon="0.53782">
        <ele>504.456715</ele>
        <time>2022-07-24T21:48:44.908Z</time>
      </trkpt>
      <trkpt lat="43.08509" lon="0.53733">
        <ele>501.667509</ele>
        <time>2022-07-24T21:49:03.665Z</time>
      </trkpt>
      <trkpt lat="43.08233" lon="0.53716">
        <ele>491.131061</ele>
        <time>2022-07-24T21:49:56.664Z</time>
      </trkpt>
      <trkpt lat="43.08294" lon="0.53174">
        <ele>486.388203</ele>
        <time>2022-07-24T21:51:09.109Z</time>
      </trkpt>
      <trkpt lat="43.0828" lon="0.53183">
        <ele>486.166037</ele>
        <time>2022-07-24T21:51:12.778Z</time>
      </trkpt>
      <trkpt lat="43.08059" lon="0.53477">
        <ele>478.492182</ele>
        <time>2022-07-24T21:52:18.389Z</time>
      </trkpt>
      <trkpt lat="43.07998" lon="0.53532">
        <ele>475.540246</ele>
        <time>2022-07-24T21:52:32.798Z</time>
      </trkpt>
      <trkpt lat="43.07847" lon="0.53668">
        <ele>466.196515</ele>
        <time>2022-07-24T21:53:06.342Z</time>
      </trkpt>
      <trkpt lat="43.0772" lon="0.53738">
        <ele>458.262209</ele>
        <time>2022-07-24T21:53:31.469Z</time>
      </trkpt>
      <trkpt lat="43.07659" lon="0.53761">
        <ele>454.564303</ele>
        <time>2022-07-24T21:53:43.341Z</time>
      </trkpt>
      <trkpt lat="43.07647" lon="0.53754">
        <ele>453.78816</ele>
        <time>2022-07-24T21:53:45.770Z</time>
      </trkpt>
      <trkpt lat="43.0764" lon="0.53709">
        <ele>451.847348</ele>
        <time>2022-07-24T21:53:51.941Z</time>
      </trkpt>
      <trkpt lat="43.07623" lon="0.53703">
        <ele>450.931488</ele>
        <time>2022-07-24T21:53:55.041Z</time>
      </trkpt>
      <trkpt lat="43.0761" lon="0.53709">
        <ele>450.146515</ele>
        <time>2022-07-24T21:53:57.726Z</time>
      </trkpt>
      <trkpt lat="43.07603" lon="0.53723">
        <ele>449.46885</ele>
        <time>2022-07-24T21:54:00.004Z</time>
      </trkpt>
      <trkpt lat="43.0761" lon="0.53797">
        <ele>446.494455</ele>
        <time>2022-07-24T21:54:10.411Z</time>
      </trkpt>
      <trkpt lat="43.07588" lon="0.53864">
        <ele>443.590262</ele>
        <time>2022-07-24T21:54:20.242Z</time>
      </trkpt>
      <trkpt lat="43.07534" lon="0.54003">
        <ele>438.841281</ele>
        <time>2022-07-24T21:54:41.746Z</time>
      </trkpt>
      <trkpt lat="43.07504" lon="0.54117">
        <ele>435.509823</ele>
        <time>2022-07-24T21:55:00.779Z</time>
      </trkpt>
      <trkpt lat="43.07492" lon="0.54152">
        <ele>435.092004</ele>
        <time>2022-07-24T21:55:07.125Z</time>
      </trkpt>
      <trkpt lat="43.07486" lon="0.54162">
        <ele>434.941307</ele>
        <time>2022-07-24T21:55:09.473Z</time>
      </trkpt>
      <trkpt lat="43.07423" lon="0.54201">
        <ele>433.912861</ele>
        <time>2022-07-24T21:55:25.208Z</time>
      </trkpt>
      <trkpt lat="43.07383" lon="0.54208">
        <ele>433.296625</ele>
        <time>2022-07-24T21:55:34.876Z</time>
      </trkpt>
      <trkpt lat="43.07341" lon="0.54203">
        <ele>432.726506</ele>
        <time>2022-07-24T21:55:44.843Z</time>
      </trkpt>
      <trkpt lat="43.07306" lon="0.54195">
        <ele>432.340395</ele>
        <time>2022-07-24T21:55:53.409Z</time>
      </trkpt>
      <trkpt lat="43.07267" lon="0.54204">
        <ele>431.916339</ele>
        <time>2022-07-24T21:56:02.652Z</time>
      </trkpt>
      <trkpt lat="43.0726" lon="0.54207">
        <ele>431.832537</ele>
        <time>2022-07-24T21:56:04.467Z</time>
      </trkpt>
      <trkpt lat="43.07243" lon="0.54211">
        <ele>431.649198</ele>
        <time>2022-07-24T21:56:08.418Z</time>
      </trkpt>
      <trkpt lat="43.07211" lon="0.5422">
        <ele>431.299515</ele>
        <time>2022-07-24T21:56:16.115Z</time>
      </trkpt>
      <trkpt lat="43.07189" lon="0.54224">
        <ele>431.056775</ele>
        <time>2022-07-24T21:56:21.747Z</time>
      </trkpt>
      <trkpt lat="43.07155" lon="0.54243">
        <ele>430.796872</ele>
        <time>2022-07-24T21:56:31.270Z</time>
      </trkpt>
      <trkpt lat="43.07135" lon="0.54267">
        <ele>430.662291</ele>
        <time>2022-07-24T21:56:38.209Z</time>
      </trkpt>
      <trkpt lat="43.07128" lon="0.54282">
        <ele>430.59722</ele>
        <time>2022-07-24T21:56:41.614Z</time>
      </trkpt>
      <trkpt lat="43.07124" lon="0.5429">
        <ele>430.561227</ele>
        <time>2022-07-24T21:56:43.431Z</time>
      </trkpt>
      <trkpt lat="43.07114" lon="0.543">
        <ele>430.49747</ele>
        <time>2022-07-24T21:56:46.819Z</time>
      </trkpt>
      <trkpt lat="43.07108" lon="0.54313">
        <ele>430.438131</ele>
        <time>2022-07-24T21:56:49.101Z</time>
      </trkpt>
      <trkpt lat="43.07095" lon="0.54325">
        <ele>430.356469</ele>
        <time>2022-07-24T21:56:53.289Z</time>
      </trkpt>
      <trkpt lat="43.0709" lon="0.54372">
        <ele>430.180796</ele>
        <time>2022-07-24T21:57:02.251Z</time>
      </trkpt>
      <trkpt lat="43.07078" lon="0.54421">
        <ele>430.001645</ele>
        <time>2022-07-24T21:57:11.873Z</time>
      </trkpt>
      <trkpt lat="43.07036" lon="0.54423">
        <ele>430.001645</ele>
        <time>2022-07-24T21:57:22.692Z</time>
      </trkpt>
      <trkpt lat="43.07031" lon="0.54451">
        <ele>430.001645</ele>
        <time>2022-07-24T21:57:28.254Z</time>
      </trkpt>
      <trkpt lat="43.07016" lon="0.54459">
        <ele>430.001645</ele>
        <time>2022-07-24T21:57:32.476Z</time>
      </trkpt>
      <trkpt lat="43.06997" lon="0.54481">
        <ele>430.001645</ele>
        <time>2022-07-24T21:58:09.927Z</time>
      </trkpt>
      <trkpt lat="43.06998" lon="0.54503">
        <ele>430.001645</ele>
        <time>2022-07-24T21:58:34.383Z</time>
      </trkpt>
      <trkpt lat="43.06991" lon="0.54505">
        <ele>430.001645</ele>
        <time>2022-07-24T21:58:45.062Z</time>
      </trkpt>
    </trkseg>
  </trk>
</gpx>